<?xml version="1.0" encoding="UTF-8" standalone="no" ?>
<gpx xmlns="http://www.topografix.com/GPX/1/1" xmlns:xsi="http://www.w3.org/2001/XMLSchema-instance" xsi:schemaLocation="http://www.topografix.com/GPX/1/1 http://www.topografix.com/GPX/1/1/gpx.xsd" version="1.1" creator="VisuGPX - https://www.visugpx.com">
  <metadata>
    <name>Le Pinet (1867m) au départ de La Plagne (1077m -Chartreuse)</name>
    <desc><![CDATA[Le Sommet du Pinet (ou « Le Truc »?) peut être une randonnée alternative si vous avez trop fait le Granier. Même si elle n?offre pas le même superbe balcon sur Chambéry, la vue est assez similaire (Chartreuse, Belledonne, Combe de Savoie et Mont Blanc) avec un point de vue sur le Granier. Certains passages sont un peu raides mais rien n?est difficile.]]></desc>
  </metadata>
  <trk>
    <name><![CDATA[Mont Pinet Marche 21 juil. 2020 à 13:53]]></name>
    <trkseg>
      <trkpt lat="45.44413" lon="5.90336">
        <ele>1100.0767045798</ele>
        <time>2020-07-21T11:53:35Z</time>
      </trkpt>
      <trkpt lat="45.4441" lon="5.90336">
        <ele>1104.0765144197</ele>
        <time>2020-07-21T11:54:12Z</time>
      </trkpt>
      <trkpt lat="45.44401" lon="5.9034">
        <ele>1095.075918209</ele>
        <time>2020-07-21T11:54:17Z</time>
      </trkpt>
      <trkpt lat="45.44402" lon="5.90345">
        <ele>1089.0757648004</ele>
        <time>2020-07-21T11:54:23Z</time>
      </trkpt>
      <trkpt lat="45.44395" lon="5.90353">
        <ele>1089.0751442937</ele>
        <time>2020-07-21T11:54:28Z</time>
      </trkpt>
      <trkpt lat="45.44391" lon="5.90364">
        <ele>1088.074578499</ele>
        <time>2020-07-21T11:54:34Z</time>
      </trkpt>
      <trkpt lat="45.44396" lon="5.90373">
        <ele>1084.0745692927</ele>
        <time>2020-07-21T11:54:40Z</time>
      </trkpt>
      <trkpt lat="45.44395" lon="5.90386">
        <ele>1085.0741054523</ele>
        <time>2020-07-21T11:54:44Z</time>
      </trkpt>
      <trkpt lat="45.44395" lon="5.90399">
        <ele>1088.0737385005</ele>
        <time>2020-07-21T11:54:55Z</time>
      </trkpt>
      <trkpt lat="45.44397" lon="5.9041">
        <ele>1087.0734791291</ele>
        <time>2020-07-21T11:55:06Z</time>
      </trkpt>
      <trkpt lat="45.44395" lon="5.90423">
        <ele>1088.0729890676</ele>
        <time>2020-07-21T11:55:14Z</time>
      </trkpt>
      <trkpt lat="45.44401" lon="5.90434">
        <ele>1087.0729935809</ele>
        <time>2020-07-21T11:55:19Z</time>
      </trkpt>
      <trkpt lat="45.44404" lon="5.90446">
        <ele>1086.072750108</ele>
        <time>2020-07-21T11:55:29Z</time>
      </trkpt>
      <trkpt lat="45.44404" lon="5.90458">
        <ele>1086.0724330424</ele>
        <time>2020-07-21T11:55:38Z</time>
      </trkpt>
      <trkpt lat="45.44401" lon="5.90468">
        <ele>1089.0719398884</ele>
        <time>2020-07-21T11:55:46Z</time>
      </trkpt>
      <trkpt lat="45.44403" lon="5.90482">
        <ele>1089.0716031176</ele>
        <time>2020-07-21T11:55:50Z</time>
      </trkpt>
      <trkpt lat="45.44407" lon="5.9049">
        <ele>1090.0715639903</ele>
        <time>2020-07-21T11:55:56Z</time>
      </trkpt>
      <trkpt lat="45.44407" lon="5.90502">
        <ele>1089.0712189584</ele>
        <time>2020-07-21T11:56:04Z</time>
      </trkpt>
      <trkpt lat="45.4441" lon="5.90514">
        <ele>1091.0709996664</ele>
        <time>2020-07-21T11:56:14Z</time>
      </trkpt>
      <trkpt lat="45.44412" lon="5.90526">
        <ele>1092.070721011</ele>
        <time>2020-07-21T11:56:28Z</time>
      </trkpt>
      <trkpt lat="45.44411" lon="5.90538">
        <ele>1096.0703126999</ele>
        <time>2020-07-21T11:56:41Z</time>
      </trkpt>
      <trkpt lat="45.44412" lon="5.9055">
        <ele>1094.0700165324</ele>
        <time>2020-07-21T11:56:52Z</time>
      </trkpt>
      <trkpt lat="45.44413" lon="5.90562">
        <ele>1095.069680918</ele>
        <time>2020-07-21T11:57:02Z</time>
      </trkpt>
      <trkpt lat="45.44412" lon="5.90573">
        <ele>1095.0692568602</ele>
        <time>2020-07-21T11:57:12Z</time>
      </trkpt>
      <trkpt lat="45.44414" lon="5.90585">
        <ele>1099.0690283174</ele>
        <time>2020-07-21T11:57:24Z</time>
      </trkpt>
      <trkpt lat="45.44418" lon="5.90596">
        <ele>1098.0688825458</ele>
        <time>2020-07-21T11:57:37Z</time>
      </trkpt>
      <trkpt lat="45.44419" lon="5.90603">
        <ele>1090.0687306372</ele>
        <time>2020-07-21T11:58:07Z</time>
      </trkpt>
      <trkpt lat="45.44425" lon="5.9061">
        <ele>1092.0688383196</ele>
        <time>2020-07-21T11:58:14Z</time>
      </trkpt>
      <trkpt lat="45.44416" lon="5.90612">
        <ele>1093.0683027622</ele>
        <time>2020-07-21T11:58:21Z</time>
      </trkpt>
      <trkpt lat="45.44424" lon="5.90599">
        <ele>1097.0691216015</ele>
        <time>2020-07-21T11:58:25Z</time>
      </trkpt>
      <trkpt lat="45.44423" lon="5.90609">
        <ele>1105.0687532012</ele>
        <time>2020-07-21T11:58:35Z</time>
      </trkpt>
      <trkpt lat="45.44424" lon="5.90622">
        <ele>1100.0684273729</ele>
        <time>2020-07-21T11:58:39Z</time>
      </trkpt>
      <trkpt lat="45.4442" lon="5.90633">
        <ele>1102.0678407044</ele>
        <time>2020-07-21T11:58:53Z</time>
      </trkpt>
      <trkpt lat="45.44413" lon="5.9064">
        <ele>1103.0672735045</ele>
        <time>2020-07-21T11:59:08Z</time>
      </trkpt>
      <trkpt lat="45.44416" lon="5.90648">
        <ele>1103.0671668891</ele>
        <time>2020-07-21T11:59:16Z</time>
      </trkpt>
      <trkpt lat="45.44412" lon="5.90658">
        <ele>1105.0666455695</ele>
        <time>2020-07-21T11:59:23Z</time>
      </trkpt>
      <trkpt lat="45.44405" lon="5.90665">
        <ele>1105.0660337257</ele>
        <time>2020-07-21T11:59:30Z</time>
      </trkpt>
      <trkpt lat="45.44402" lon="5.90676">
        <ele>1108.0655547249</ele>
        <time>2020-07-21T11:59:47Z</time>
      </trkpt>
      <trkpt lat="45.44393" lon="5.90683">
        <ele>1105.064808591</ele>
        <time>2020-07-21T11:59:52Z</time>
      </trkpt>
      <trkpt lat="45.44392" lon="5.90694">
        <ele>1108.064426764</ele>
        <time>2020-07-21T12:00:13Z</time>
      </trkpt>
      <trkpt lat="45.44395" lon="5.90704">
        <ele>1106.0642318214</ele>
        <time>2020-07-21T12:00:18Z</time>
      </trkpt>
      <trkpt lat="45.44401" lon="5.90714">
        <ele>1105.0642631086</ele>
        <time>2020-07-21T12:00:23Z</time>
      </trkpt>
      <trkpt lat="45.44404" lon="5.90726">
        <ele>1103.0640597103</ele>
        <time>2020-07-21T12:00:34Z</time>
      </trkpt>
      <trkpt lat="45.44411" lon="5.90724">
        <ele>1104.0644894927</ele>
        <time>2020-07-21T12:00:40Z</time>
      </trkpt>
      <trkpt lat="45.44416" lon="5.90734">
        <ele>1115.0644959725</ele>
        <time>2020-07-21T12:00:59Z</time>
      </trkpt>
      <trkpt lat="45.44417" lon="5.90746">
        <ele>1115.0641695294</ele>
        <time>2020-07-21T12:01:07Z</time>
      </trkpt>
      <trkpt lat="45.44418" lon="5.90758">
        <ele>1115.0638583013</ele>
        <time>2020-07-21T12:01:17Z</time>
      </trkpt>
      <trkpt lat="45.44414" lon="5.90768">
        <ele>1117.0633325149</ele>
        <time>2020-07-21T12:01:36Z</time>
      </trkpt>
      <trkpt lat="45.44418" lon="5.90779">
        <ele>1119.0631857405</ele>
        <time>2020-07-21T12:01:45Z</time>
      </trkpt>
      <trkpt lat="45.4441" lon="5.90784">
        <ele>1120.0626227026</ele>
        <time>2020-07-21T12:02:02Z</time>
      </trkpt>
      <trkpt lat="45.44403" lon="5.90791">
        <ele>1120.0620109647</ele>
        <time>2020-07-21T12:02:10Z</time>
      </trkpt>
      <trkpt lat="45.44395" lon="5.90796">
        <ele>1123.0614219646</ele>
        <time>2020-07-21T12:02:19Z</time>
      </trkpt>
      <trkpt lat="45.4439" lon="5.90803">
        <ele>1122.06089186</ele>
        <time>2020-07-21T12:02:27Z</time>
      </trkpt>
      <trkpt lat="45.44384" lon="5.90811">
        <ele>1128.0603740096</ele>
        <time>2020-07-21T12:02:38Z</time>
      </trkpt>
      <trkpt lat="45.44377" lon="5.90813">
        <ele>1129.0598878587</ele>
        <time>2020-07-21T12:02:47Z</time>
      </trkpt>
      <trkpt lat="45.44378" lon="5.90825">
        <ele>1133.0596174144</ele>
        <time>2020-07-21T12:03:25Z</time>
      </trkpt>
      <trkpt lat="45.44378" lon="5.90846">
        <ele>1134.0589419884</ele>
        <time>2020-07-21T12:03:29Z</time>
      </trkpt>
      <trkpt lat="45.4438" lon="5.90859">
        <ele>1142.058645182</ele>
        <time>2020-07-21T12:03:43Z</time>
      </trkpt>
      <trkpt lat="45.44383" lon="5.90869">
        <ele>1141.0584999842</ele>
        <time>2020-07-21T12:04:07Z</time>
      </trkpt>
      <trkpt lat="45.44384" lon="5.90873">
        <ele>1141.0584063269</ele>
        <time>2020-07-21T12:04:23Z</time>
      </trkpt>
      <trkpt lat="45.44381" lon="5.90896">
        <ele>1143.0575405578</ele>
        <time>2020-07-21T12:04:27Z</time>
      </trkpt>
      <trkpt lat="45.44372" lon="5.90896">
        <ele>1145.0570592069</ele>
        <time>2020-07-21T12:04:29Z</time>
      </trkpt>
      <trkpt lat="45.44346" lon="5.91016">
        <ele>1154.0519354372</ele>
        <time>2020-07-21T12:06:51Z</time>
      </trkpt>
      <trkpt lat="45.44338" lon="5.91018">
        <ele>1176.0513945328</ele>
        <time>2020-07-21T12:06:58Z</time>
      </trkpt>
      <trkpt lat="45.44332" lon="5.91028">
        <ele>1180.0507966946</ele>
        <time>2020-07-21T12:07:10Z</time>
      </trkpt>
      <trkpt lat="45.44327" lon="5.91039">
        <ele>1186.0502002898</ele>
        <time>2020-07-21T12:07:27Z</time>
      </trkpt>
      <trkpt lat="45.44324" lon="5.9105">
        <ele>1189.0496768525</ele>
        <time>2020-07-21T12:07:45Z</time>
      </trkpt>
      <trkpt lat="45.44321" lon="5.91061">
        <ele>1193.0491933319</ele>
        <time>2020-07-21T12:08:06Z</time>
      </trkpt>
      <trkpt lat="45.44321" lon="5.91074">
        <ele>1196.0487568405</ele>
        <time>2020-07-21T12:08:18Z</time>
      </trkpt>
      <trkpt lat="45.44315" lon="5.91083">
        <ele>1202.0481502009</ele>
        <time>2020-07-21T12:08:41Z</time>
      </trkpt>
      <trkpt lat="45.44316" lon="5.91095">
        <ele>1197.047863499</ele>
        <time>2020-07-21T12:08:49Z</time>
      </trkpt>
      <trkpt lat="45.44316" lon="5.91107">
        <ele>1203.0474806154</ele>
        <time>2020-07-21T12:09:13Z</time>
      </trkpt>
      <trkpt lat="45.4432" lon="5.91118">
        <ele>1210.047367245</ele>
        <time>2020-07-21T12:09:29Z</time>
      </trkpt>
      <trkpt lat="45.4432" lon="5.91128">
        <ele>1211.0470798466</ele>
        <time>2020-07-21T12:09:49Z</time>
      </trkpt>
      <trkpt lat="45.44324" lon="5.91137">
        <ele>1209.0469637675</ele>
        <time>2020-07-21T12:09:58Z</time>
      </trkpt>
      <trkpt lat="45.44325" lon="5.91149">
        <ele>1210.0466734589</ele>
        <time>2020-07-21T12:10:17Z</time>
      </trkpt>
      <trkpt lat="45.44328" lon="5.91158">
        <ele>1209.0465181788</ele>
        <time>2020-07-21T12:10:22Z</time>
      </trkpt>
      <trkpt lat="45.44329" lon="5.9117">
        <ele>1212.0462510828</ele>
        <time>2020-07-21T12:10:44Z</time>
      </trkpt>
      <trkpt lat="45.44334" lon="5.91179">
        <ele>1213.0462502224</ele>
        <time>2020-07-21T12:11:01Z</time>
      </trkpt>
      <trkpt lat="45.44342" lon="5.91186">
        <ele>1214.046435406</ele>
        <time>2020-07-21T12:11:13Z</time>
      </trkpt>
      <trkpt lat="45.44343" lon="5.91196">
        <ele>1222.0461868127</ele>
        <time>2020-07-21T12:11:26Z</time>
      </trkpt>
      <trkpt lat="45.44347" lon="5.91209">
        <ele>1219.0459821993</ele>
        <time>2020-07-21T12:11:30Z</time>
      </trkpt>
      <trkpt lat="45.44351" lon="5.91218">
        <ele>1217.0459464919</ele>
        <time>2020-07-21T12:12:05Z</time>
      </trkpt>
      <trkpt lat="45.44355" lon="5.91228">
        <ele>1214.0458409472</ele>
        <time>2020-07-21T12:12:11Z</time>
      </trkpt>
      <trkpt lat="45.44362" lon="5.91223">
        <ele>1226.0463850668</ele>
        <time>2020-07-21T12:12:21Z</time>
      </trkpt>
      <trkpt lat="45.4437" lon="5.91227">
        <ele>1226.0466831608</ele>
        <time>2020-07-21T12:12:28Z</time>
      </trkpt>
      <trkpt lat="45.44375" lon="5.91237">
        <ele>1238.0466542584</ele>
        <time>2020-07-21T12:12:47Z</time>
      </trkpt>
      <trkpt lat="45.44384" lon="5.91239">
        <ele>1239.0470748989</ele>
        <time>2020-07-21T12:13:03Z</time>
      </trkpt>
      <trkpt lat="45.44387" lon="5.91248">
        <ele>1238.0469708609</ele>
        <time>2020-07-21T12:13:17Z</time>
      </trkpt>
      <trkpt lat="45.44393" lon="5.91256">
        <ele>1237.0470410238</ele>
        <time>2020-07-21T12:13:24Z</time>
      </trkpt>
      <trkpt lat="45.44396" lon="5.91267">
        <ele>1233.0468449395</ele>
        <time>2020-07-21T12:13:36Z</time>
      </trkpt>
      <trkpt lat="45.44394" lon="5.91279">
        <ele>1243.0464015212</ele>
        <time>2020-07-21T12:13:59Z</time>
      </trkpt>
      <trkpt lat="45.4439" lon="5.9129">
        <ele>1244.0458369343</ele>
        <time>2020-07-21T12:14:18Z</time>
      </trkpt>
      <trkpt lat="45.44382" lon="5.91293">
        <ele>1248.0452968334</ele>
        <time>2020-07-21T12:14:28Z</time>
      </trkpt>
      <trkpt lat="45.44378" lon="5.91304">
        <ele>1244.0447231015</ele>
        <time>2020-07-21T12:14:46Z</time>
      </trkpt>
      <trkpt lat="45.44379" lon="5.91316">
        <ele>1243.0443999461</ele>
        <time>2020-07-21T12:15:03Z</time>
      </trkpt>
      <trkpt lat="45.44373" lon="5.91323">
        <ele>1249.0438532267</ele>
        <time>2020-07-21T12:15:15Z</time>
      </trkpt>
      <trkpt lat="45.44366" lon="5.91329">
        <ele>1253.0432841395</ele>
        <time>2020-07-21T12:15:26Z</time>
      </trkpt>
      <trkpt lat="45.44362" lon="5.9134">
        <ele>1254.0427777761</ele>
        <time>2020-07-21T12:15:37Z</time>
      </trkpt>
      <trkpt lat="45.44355" lon="5.91347">
        <ele>1254.0421605602</ele>
        <time>2020-07-21T12:15:54Z</time>
      </trkpt>
      <trkpt lat="45.44352" lon="5.91357">
        <ele>1252.0416703604</ele>
        <time>2020-07-21T12:16:00Z</time>
      </trkpt>
      <trkpt lat="45.44345" lon="5.91365">
        <ele>1256.0410555667</ele>
        <time>2020-07-21T12:16:10Z</time>
      </trkpt>
      <trkpt lat="45.44336" lon="5.9137">
        <ele>1259.0404603512</ele>
        <time>2020-07-21T12:16:24Z</time>
      </trkpt>
      <trkpt lat="45.44337" lon="5.91382">
        <ele>1261.0400930326</ele>
        <time>2020-07-21T12:16:54Z</time>
      </trkpt>
      <trkpt lat="45.44333" lon="5.91393">
        <ele>1258.03954845</ele>
        <time>2020-07-21T12:17:03Z</time>
      </trkpt>
      <trkpt lat="45.44329" lon="5.91403">
        <ele>1262.0390207445</ele>
        <time>2020-07-21T12:17:19Z</time>
      </trkpt>
      <trkpt lat="45.44324" lon="5.91413">
        <ele>1276.0384321035</ele>
        <time>2020-07-21T12:17:41Z</time>
      </trkpt>
      <trkpt lat="45.44328" lon="5.91424">
        <ele>1287.0383168374</ele>
        <time>2020-07-21T12:18:14Z</time>
      </trkpt>
      <trkpt lat="45.44328" lon="5.91435">
        <ele>1289.0379986567</ele>
        <time>2020-07-21T12:18:25Z</time>
      </trkpt>
      <trkpt lat="45.44329" lon="5.91447">
        <ele>1284.0376697343</ele>
        <time>2020-07-21T12:18:33Z</time>
      </trkpt>
      <trkpt lat="45.44329" lon="5.9146">
        <ele>1289.0372813025</ele>
        <time>2020-07-21T12:18:54Z</time>
      </trkpt>
      <trkpt lat="45.44329" lon="5.91472">
        <ele>1285.0369131319</ele>
        <time>2020-07-21T12:19:11Z</time>
      </trkpt>
      <trkpt lat="45.44322" lon="5.91476">
        <ele>1291.0363987318</ele>
        <time>2020-07-21T12:19:21Z</time>
      </trkpt>
      <trkpt lat="45.44314" lon="5.9148">
        <ele>1296.035832349</ele>
        <time>2020-07-21T12:19:33Z</time>
      </trkpt>
      <trkpt lat="45.44311" lon="5.9149">
        <ele>1299.0353708725</ele>
        <time>2020-07-21T12:20:01Z</time>
      </trkpt>
      <trkpt lat="45.44305" lon="5.91499">
        <ele>1293.0347642253</ele>
        <time>2020-07-21T12:20:55Z</time>
      </trkpt>
      <trkpt lat="45.44298" lon="5.91506">
        <ele>1298.0341642846</ele>
        <time>2020-07-21T12:21:19Z</time>
      </trkpt>
      <trkpt lat="45.4429" lon="5.91512">
        <ele>1306.0335621549</ele>
        <time>2020-07-21T12:21:37Z</time>
      </trkpt>
      <trkpt lat="45.44285" lon="5.91522">
        <ele>1312.0329857632</ele>
        <time>2020-07-21T12:21:55Z</time>
      </trkpt>
      <trkpt lat="45.44279" lon="5.91528">
        <ele>1315.0324707908</ele>
        <time>2020-07-21T12:22:10Z</time>
      </trkpt>
      <trkpt lat="45.44276" lon="5.91539">
        <ele>1321.0319654978</ele>
        <time>2020-07-21T12:22:31Z</time>
      </trkpt>
      <trkpt lat="45.44269" lon="5.91547">
        <ele>1325.0313515672</ele>
        <time>2020-07-21T12:22:46Z</time>
      </trkpt>
      <trkpt lat="45.44264" lon="5.91557">
        <ele>1328.0307840498</ele>
        <time>2020-07-21T12:23:03Z</time>
      </trkpt>
      <trkpt lat="45.4426" lon="5.91568">
        <ele>1329.0302374821</ele>
        <time>2020-07-21T12:23:18Z</time>
      </trkpt>
      <trkpt lat="45.44253" lon="5.91575">
        <ele>1330.029646152</ele>
        <time>2020-07-21T12:23:30Z</time>
      </trkpt>
      <trkpt lat="45.44249" lon="5.91587">
        <ele>1331.029090214</ele>
        <time>2020-07-21T12:23:42Z</time>
      </trkpt>
      <trkpt lat="45.44246" lon="5.91598">
        <ele>1333.0285626806</ele>
        <time>2020-07-21T12:23:53Z</time>
      </trkpt>
      <trkpt lat="45.44239" lon="5.91605">
        <ele>1341.027958083</ele>
        <time>2020-07-21T12:24:07Z</time>
      </trkpt>
      <trkpt lat="45.44238" lon="5.91617">
        <ele>1346.0275202212</ele>
        <time>2020-07-21T12:24:24Z</time>
      </trkpt>
      <trkpt lat="45.44235" lon="5.91628">
        <ele>1344.0270612992</ele>
        <time>2020-07-21T12:24:39Z</time>
      </trkpt>
      <trkpt lat="45.44229" lon="5.91637">
        <ele>1348.0264804464</ele>
        <time>2020-07-21T12:24:54Z</time>
      </trkpt>
      <trkpt lat="45.44227" lon="5.91647">
        <ele>1341.026029505</ele>
        <time>2020-07-21T12:25:09Z</time>
      </trkpt>
      <trkpt lat="45.4422" lon="5.91655">
        <ele>1345.0254523016</ele>
        <time>2020-07-21T12:25:16Z</time>
      </trkpt>
      <trkpt lat="45.44228" lon="5.91657">
        <ele>1350.0257932955</ele>
        <time>2020-07-21T12:25:29Z</time>
      </trkpt>
      <trkpt lat="45.44236" lon="5.91653">
        <ele>1353.0263665705</ele>
        <time>2020-07-21T12:25:39Z</time>
      </trkpt>
      <trkpt lat="45.44243" lon="5.91645">
        <ele>1367.0269828632</ele>
        <time>2020-07-21T12:25:51Z</time>
      </trkpt>
      <trkpt lat="45.44252" lon="5.91645">
        <ele>1366.0274553317</ele>
        <time>2020-07-21T12:25:59Z</time>
      </trkpt>
      <trkpt lat="45.44261" lon="5.91643">
        <ele>1368.0279858307</ele>
        <time>2020-07-21T12:26:09Z</time>
      </trkpt>
      <trkpt lat="45.44267" lon="5.91635">
        <ele>1365.0285579446</ele>
        <time>2020-07-21T12:26:18Z</time>
      </trkpt>
      <trkpt lat="45.44275" lon="5.91631">
        <ele>1363.0291065301</ele>
        <time>2020-07-21T12:26:27Z</time>
      </trkpt>
      <trkpt lat="45.44283" lon="5.91624">
        <ele>1370.0297109948</ele>
        <time>2020-07-21T12:26:58Z</time>
      </trkpt>
      <trkpt lat="45.44291" lon="5.91629">
        <ele>1375.0300194163</ele>
        <time>2020-07-21T12:27:20Z</time>
      </trkpt>
      <trkpt lat="45.44299" lon="5.91631">
        <ele>1377.0303606662</ele>
        <time>2020-07-21T12:27:34Z</time>
      </trkpt>
      <trkpt lat="45.44299" lon="5.91644">
        <ele>1375.0299994328</ele>
        <time>2020-07-21T12:28:07Z</time>
      </trkpt>
      <trkpt lat="45.44294" lon="5.91652">
        <ele>1376.0294499514</ele>
        <time>2020-07-21T12:28:18Z</time>
      </trkpt>
      <trkpt lat="45.44288" lon="5.91661">
        <ele>1377.0288473857</ele>
        <time>2020-07-21T12:28:28Z</time>
      </trkpt>
      <trkpt lat="45.44281" lon="5.91669">
        <ele>1381.0282579621</ele>
        <time>2020-07-21T12:28:39Z</time>
      </trkpt>
      <trkpt lat="45.44278" lon="5.9168">
        <ele>1384.0277287163</ele>
        <time>2020-07-21T12:28:51Z</time>
      </trkpt>
      <trkpt lat="45.44285" lon="5.91686">
        <ele>1396.027928115</ele>
        <time>2020-07-21T12:29:30Z</time>
      </trkpt>
      <trkpt lat="45.44293" lon="5.91684">
        <ele>1403.0284430666</ele>
        <time>2020-07-21T12:29:53Z</time>
      </trkpt>
      <trkpt lat="45.44302" lon="5.91684">
        <ele>1401.0289063512</ele>
        <time>2020-07-21T12:30:02Z</time>
      </trkpt>
      <trkpt lat="45.4431" lon="5.91686">
        <ele>1400.0292770004</ele>
        <time>2020-07-21T12:30:15Z</time>
      </trkpt>
      <trkpt lat="45.44318" lon="5.91689">
        <ele>1396.0296036127</ele>
        <time>2020-07-21T12:30:23Z</time>
      </trkpt>
      <trkpt lat="45.44312" lon="5.91699">
        <ele>1402.0289927088</ele>
        <time>2020-07-21T12:31:00Z</time>
      </trkpt>
      <trkpt lat="45.44309" lon="5.9171">
        <ele>1405.0284653466</ele>
        <time>2020-07-21T12:31:17Z</time>
      </trkpt>
      <trkpt lat="45.44306" lon="5.91722">
        <ele>1405.027960096</ele>
        <time>2020-07-21T12:31:31Z</time>
      </trkpt>
      <trkpt lat="45.44303" lon="5.91734">
        <ele>1408.0274177614</ele>
        <time>2020-07-21T12:31:45Z</time>
      </trkpt>
      <trkpt lat="45.44299" lon="5.91744">
        <ele>1414.0268753915</ele>
        <time>2020-07-21T12:32:05Z</time>
      </trkpt>
      <trkpt lat="45.44307" lon="5.9174">
        <ele>1430.0274277703</ele>
        <time>2020-07-21T12:32:57Z</time>
      </trkpt>
      <trkpt lat="45.44315" lon="5.91745">
        <ele>1423.0277151581</ele>
        <time>2020-07-21T12:33:11Z</time>
      </trkpt>
      <trkpt lat="45.44324" lon="5.91743">
        <ele>1431.0282457021</ele>
        <time>2020-07-21T12:33:51Z</time>
      </trkpt>
      <trkpt lat="45.44326" lon="5.91754">
        <ele>1429.0279915756</ele>
        <time>2020-07-21T12:34:10Z</time>
      </trkpt>
      <trkpt lat="45.44334" lon="5.91757">
        <ele>1432.0283440688</ele>
        <time>2020-07-21T12:34:31Z</time>
      </trkpt>
      <trkpt lat="45.44335" lon="5.91769">
        <ele>1438.0280003682</ele>
        <time>2020-07-21T12:34:59Z</time>
      </trkpt>
      <trkpt lat="45.44334" lon="5.91781">
        <ele>1436.0275882902</ele>
        <time>2020-07-21T12:35:14Z</time>
      </trkpt>
      <trkpt lat="45.4433" lon="5.91793">
        <ele>1440.0270332974</ele>
        <time>2020-07-21T12:35:37Z</time>
      </trkpt>
      <trkpt lat="45.44324" lon="5.91802">
        <ele>1442.0264387564</ele>
        <time>2020-07-21T12:35:54Z</time>
      </trkpt>
      <trkpt lat="45.44321" lon="5.91814">
        <ele>1447.0259130894</ele>
        <time>2020-07-21T12:36:15Z</time>
      </trkpt>
      <trkpt lat="45.44315" lon="5.91822">
        <ele>1449.0253356668</ele>
        <time>2020-07-21T12:36:28Z</time>
      </trkpt>
      <trkpt lat="45.4431" lon="5.91832">
        <ele>1448.0247518012</ele>
        <time>2020-07-21T12:36:36Z</time>
      </trkpt>
      <trkpt lat="45.44304" lon="5.9184">
        <ele>1447.0241545124</ele>
        <time>2020-07-21T12:36:51Z</time>
      </trkpt>
      <trkpt lat="45.44298" lon="5.9185">
        <ele>1460.0235591662</ele>
        <time>2020-07-21T12:37:27Z</time>
      </trkpt>
      <trkpt lat="45.4429" lon="5.91845">
        <ele>1466.0232696074</ele>
        <time>2020-07-21T12:38:34Z</time>
      </trkpt>
      <trkpt lat="45.44285" lon="5.91836">
        <ele>1469.0232819421</ele>
        <time>2020-07-21T12:38:59Z</time>
      </trkpt>
      <trkpt lat="45.44278" lon="5.91831">
        <ele>1473.0230721579</ele>
        <time>2020-07-21T12:39:11Z</time>
      </trkpt>
      <trkpt lat="45.44272" lon="5.91822">
        <ele>1473.023057156</ele>
        <time>2020-07-21T12:39:27Z</time>
      </trkpt>
      <trkpt lat="45.44268" lon="5.91812">
        <ele>1478.0231315567</ele>
        <time>2020-07-21T12:39:46Z</time>
      </trkpt>
      <trkpt lat="45.44264" lon="5.91801">
        <ele>1479.0232661128</ele>
        <time>2020-07-21T12:40:06Z</time>
      </trkpt>
      <trkpt lat="45.44257" lon="5.91793">
        <ele>1479.0231669875</ele>
        <time>2020-07-21T12:40:23Z</time>
      </trkpt>
      <trkpt lat="45.44249" lon="5.91791">
        <ele>1480.0227483139</ele>
        <time>2020-07-21T12:40:37Z</time>
      </trkpt>
      <trkpt lat="45.44241" lon="5.91788">
        <ele>1478.0224418961</ele>
        <time>2020-07-21T12:40:50Z</time>
      </trkpt>
      <trkpt lat="45.44234" lon="5.9178">
        <ele>1481.0223479005</ele>
        <time>2020-07-21T12:41:10Z</time>
      </trkpt>
      <trkpt lat="45.44227" lon="5.91774">
        <ele>1483.0221203701</ele>
        <time>2020-07-21T12:41:30Z</time>
      </trkpt>
      <trkpt lat="45.44227" lon="5.91787">
        <ele>1489.0217612105</ele>
        <time>2020-07-21T12:42:04Z</time>
      </trkpt>
      <trkpt lat="45.44229" lon="5.91799">
        <ele>1495.0214920097</ele>
        <time>2020-07-21T12:42:33Z</time>
      </trkpt>
      <trkpt lat="45.44225" lon="5.9181">
        <ele>1509.0209343158</ele>
        <time>2020-07-21T12:43:39Z</time>
      </trkpt>
      <trkpt lat="45.44221" lon="5.9182">
        <ele>1508.0203710657</ele>
        <time>2020-07-21T12:44:11Z</time>
      </trkpt>
      <trkpt lat="45.44217" lon="5.91832">
        <ele>1479.0198393709</ele>
        <time>2020-07-21T12:44:46Z</time>
      </trkpt>
      <trkpt lat="45.44212" lon="5.91842">
        <ele>1517.0192359414</ele>
        <time>2020-07-21T12:45:07Z</time>
      </trkpt>
      <trkpt lat="45.44204" lon="5.91842">
        <ele>1521.0188387976</ele>
        <time>2020-07-21T12:45:29Z</time>
      </trkpt>
      <trkpt lat="45.44199" lon="5.91853">
        <ele>1524.0182590796</ele>
        <time>2020-07-21T12:45:49Z</time>
      </trkpt>
      <trkpt lat="45.44198" lon="5.91865">
        <ele>1528.0177800088</ele>
        <time>2020-07-21T12:46:14Z</time>
      </trkpt>
      <trkpt lat="45.4419" lon="5.9187">
        <ele>1531.0172169942</ele>
        <time>2020-07-21T12:46:33Z</time>
      </trkpt>
      <trkpt lat="45.44183" lon="5.91878">
        <ele>1533.016612662</ele>
        <time>2020-07-21T12:46:47Z</time>
      </trkpt>
      <trkpt lat="45.44179" lon="5.91888">
        <ele>1534.01608632</ele>
        <time>2020-07-21T12:47:14Z</time>
      </trkpt>
      <trkpt lat="45.44172" lon="5.91896">
        <ele>1533.0154841551</ele>
        <time>2020-07-21T12:47:23Z</time>
      </trkpt>
      <trkpt lat="45.44167" lon="5.91906">
        <ele>1532.0149363702</ele>
        <time>2020-07-21T12:47:31Z</time>
      </trkpt>
      <trkpt lat="45.44162" lon="5.91916">
        <ele>1533.0143468203</ele>
        <time>2020-07-21T12:47:40Z</time>
      </trkpt>
      <trkpt lat="45.44158" lon="5.91926">
        <ele>1531.0138368636</ele>
        <time>2020-07-21T12:47:47Z</time>
      </trkpt>
      <trkpt lat="45.44154" lon="5.91936">
        <ele>1531.0132751299</ele>
        <time>2020-07-21T12:47:55Z</time>
      </trkpt>
      <trkpt lat="45.4415" lon="5.91947">
        <ele>1531.0127476387</ele>
        <time>2020-07-21T12:48:04Z</time>
      </trkpt>
      <trkpt lat="45.44147" lon="5.91959">
        <ele>1531.0122453117</ele>
        <time>2020-07-21T12:48:13Z</time>
      </trkpt>
      <trkpt lat="45.44145" lon="5.9197">
        <ele>1531.0117332278</ele>
        <time>2020-07-21T12:48:22Z</time>
      </trkpt>
      <trkpt lat="45.44141" lon="5.91981">
        <ele>1532.0112078728</ele>
        <time>2020-07-21T12:48:32Z</time>
      </trkpt>
      <trkpt lat="45.44138" lon="5.91993">
        <ele>1529.0107101348</ele>
        <time>2020-07-21T12:48:42Z</time>
      </trkpt>
      <trkpt lat="45.44134" lon="5.92003">
        <ele>1528.0101640464</ele>
        <time>2020-07-21T12:48:51Z</time>
      </trkpt>
      <trkpt lat="45.44128" lon="5.92012">
        <ele>1529.0095954245</ele>
        <time>2020-07-21T12:48:59Z</time>
      </trkpt>
      <trkpt lat="45.44123" lon="5.92021">
        <ele>1527.009020104</ele>
        <time>2020-07-21T12:49:06Z</time>
      </trkpt>
      <trkpt lat="45.44117" lon="5.9203">
        <ele>1526.0084491278</ele>
        <time>2020-07-21T12:49:13Z</time>
      </trkpt>
      <trkpt lat="45.44111" lon="5.9204">
        <ele>1526.007853815</ele>
        <time>2020-07-21T12:49:21Z</time>
      </trkpt>
      <trkpt lat="45.44106" lon="5.9205">
        <ele>1526.0072918816</ele>
        <time>2020-07-21T12:49:29Z</time>
      </trkpt>
      <trkpt lat="45.441" lon="5.92059">
        <ele>1526.0066968181</ele>
        <time>2020-07-21T12:49:37Z</time>
      </trkpt>
      <trkpt lat="45.44094" lon="5.92068">
        <ele>1526.0061058716</ele>
        <time>2020-07-21T12:49:45Z</time>
      </trkpt>
      <trkpt lat="45.44089" lon="5.92077">
        <ele>1526.0055269927</ele>
        <time>2020-07-21T12:49:53Z</time>
      </trkpt>
      <trkpt lat="45.44083" lon="5.92087">
        <ele>1525.0049384469</ele>
        <time>2020-07-21T12:50:01Z</time>
      </trkpt>
      <trkpt lat="45.44079" lon="5.92097">
        <ele>1525.0043938902</ele>
        <time>2020-07-21T12:50:10Z</time>
      </trkpt>
      <trkpt lat="45.44075" lon="5.92108">
        <ele>1523.0038511705</ele>
        <time>2020-07-21T12:50:19Z</time>
      </trkpt>
      <trkpt lat="45.44072" lon="5.9212">
        <ele>1523.0033411446</ele>
        <time>2020-07-21T12:50:27Z</time>
      </trkpt>
      <trkpt lat="45.44068" lon="5.9213">
        <ele>1523.0028055756</ele>
        <time>2020-07-21T12:50:36Z</time>
      </trkpt>
      <trkpt lat="45.44065" lon="5.92141">
        <ele>1521.0023124261</ele>
        <time>2020-07-21T12:50:44Z</time>
      </trkpt>
      <trkpt lat="45.4406" lon="5.92152">
        <ele>1519.0017528424</ele>
        <time>2020-07-21T12:50:53Z</time>
      </trkpt>
      <trkpt lat="45.44058" lon="5.92164">
        <ele>1517.001296854</ele>
        <time>2020-07-21T12:51:03Z</time>
      </trkpt>
      <trkpt lat="45.44061" lon="5.92175">
        <ele>1515.0010595642</ele>
        <time>2020-07-21T12:51:13Z</time>
      </trkpt>
      <trkpt lat="45.44057" lon="5.92186">
        <ele>1509.0005178422</ele>
        <time>2020-07-21T12:51:35Z</time>
      </trkpt>
      <trkpt lat="45.4405" lon="5.92194">
        <ele>1504.9999309554</ele>
        <time>2020-07-21T12:51:52Z</time>
      </trkpt>
      <trkpt lat="45.44043" lon="5.92199">
        <ele>1501.999391297</ele>
        <time>2020-07-21T12:52:06Z</time>
      </trkpt>
      <trkpt lat="45.44035" lon="5.92195">
        <ele>1500.9990795689</ele>
        <time>2020-07-21T12:52:16Z</time>
      </trkpt>
      <trkpt lat="45.4403" lon="5.92185">
        <ele>1500.9991426845</ele>
        <time>2020-07-21T12:52:30Z</time>
      </trkpt>
      <trkpt lat="45.44023" lon="5.92178">
        <ele>1500.9990074584</ele>
        <time>2020-07-21T12:52:46Z</time>
      </trkpt>
      <trkpt lat="45.44017" lon="5.9217">
        <ele>1499.9989390303</ele>
        <time>2020-07-21T12:52:56Z</time>
      </trkpt>
      <trkpt lat="45.4401" lon="5.92162">
        <ele>1499.9988045185</ele>
        <time>2020-07-21T12:53:05Z</time>
      </trkpt>
      <trkpt lat="45.44002" lon="5.92157">
        <ele>1498.9985326985</ele>
        <time>2020-07-21T12:53:18Z</time>
      </trkpt>
      <trkpt lat="45.43994" lon="5.9216">
        <ele>1497.9980329717</ele>
        <time>2020-07-21T12:53:25Z</time>
      </trkpt>
      <trkpt lat="45.43986" lon="5.92162">
        <ele>1495.9975349702</ele>
        <time>2020-07-21T12:53:33Z</time>
      </trkpt>
      <trkpt lat="45.43978" lon="5.92166">
        <ele>1495.9970016173</ele>
        <time>2020-07-21T12:53:41Z</time>
      </trkpt>
      <trkpt lat="45.43971" lon="5.92172">
        <ele>1495.9964585436</ele>
        <time>2020-07-21T12:53:48Z</time>
      </trkpt>
      <trkpt lat="45.43965" lon="5.9218">
        <ele>1495.9959111662</ele>
        <time>2020-07-21T12:53:55Z</time>
      </trkpt>
      <trkpt lat="45.43959" lon="5.92187">
        <ele>1494.9953709275</ele>
        <time>2020-07-21T12:54:02Z</time>
      </trkpt>
      <trkpt lat="45.43953" lon="5.92195">
        <ele>1494.994811072</ele>
        <time>2020-07-21T12:54:09Z</time>
      </trkpt>
      <trkpt lat="45.43948" lon="5.92203">
        <ele>1493.994284316</ele>
        <time>2020-07-21T12:54:16Z</time>
      </trkpt>
      <trkpt lat="45.43942" lon="5.92211">
        <ele>1492.9937057329</ele>
        <time>2020-07-21T12:54:23Z</time>
      </trkpt>
      <trkpt lat="45.43936" lon="5.92221">
        <ele>1492.9931606662</ele>
        <time>2020-07-21T12:54:31Z</time>
      </trkpt>
      <trkpt lat="45.43928" lon="5.92226">
        <ele>1492.9925828635</ele>
        <time>2020-07-21T12:54:57Z</time>
      </trkpt>
      <trkpt lat="45.4392" lon="5.92227">
        <ele>1497.9920888235</ele>
        <time>2020-07-21T12:55:17Z</time>
      </trkpt>
      <trkpt lat="45.43911" lon="5.92227">
        <ele>1502.9916147533</ele>
        <time>2020-07-21T12:55:39Z</time>
      </trkpt>
      <trkpt lat="45.43903" lon="5.92224">
        <ele>1505.9912843597</ele>
        <time>2020-07-21T12:55:57Z</time>
      </trkpt>
      <trkpt lat="45.43895" lon="5.9222">
        <ele>1508.9909796283</ele>
        <time>2020-07-21T12:56:19Z</time>
      </trkpt>
      <trkpt lat="45.43893" lon="5.92208">
        <ele>1511.9912586715</ele>
        <time>2020-07-21T12:56:41Z</time>
      </trkpt>
      <trkpt lat="45.43887" lon="5.92198">
        <ele>1514.9912536731</ele>
        <time>2020-07-21T12:56:54Z</time>
      </trkpt>
      <trkpt lat="45.43883" lon="5.92188">
        <ele>1519.9913314382</ele>
        <time>2020-07-21T12:57:10Z</time>
      </trkpt>
      <trkpt lat="45.43874" lon="5.92186">
        <ele>1520.9909432371</ele>
        <time>2020-07-21T12:57:22Z</time>
      </trkpt>
      <trkpt lat="45.43866" lon="5.92181">
        <ele>1526.9906410677</ele>
        <time>2020-07-21T12:57:41Z</time>
      </trkpt>
      <trkpt lat="45.43858" lon="5.92177">
        <ele>1528.9903846007</ele>
        <time>2020-07-21T12:57:52Z</time>
      </trkpt>
      <trkpt lat="45.4385" lon="5.92172">
        <ele>1531.9900880828</ele>
        <time>2020-07-21T12:58:07Z</time>
      </trkpt>
      <trkpt lat="45.43842" lon="5.92168">
        <ele>1532.9897917268</ele>
        <time>2020-07-21T12:58:19Z</time>
      </trkpt>
      <trkpt lat="45.43836" lon="5.92159">
        <ele>1534.9897609927</ele>
        <time>2020-07-21T12:58:33Z</time>
      </trkpt>
      <trkpt lat="45.4383" lon="5.9215">
        <ele>1538.9896713681</ele>
        <time>2020-07-21T12:58:56Z</time>
      </trkpt>
      <trkpt lat="45.43821" lon="5.92146">
        <ele>1537.9893725177</ele>
        <time>2020-07-21T12:59:08Z</time>
      </trkpt>
      <trkpt lat="45.43813" lon="5.92143">
        <ele>1539.9890021037</ele>
        <time>2020-07-21T12:59:21Z</time>
      </trkpt>
      <trkpt lat="45.43805" lon="5.92141">
        <ele>1543.9886597778</ele>
        <time>2020-07-21T12:59:35Z</time>
      </trkpt>
      <trkpt lat="45.43796" lon="5.92144">
        <ele>1549.9881199684</ele>
        <time>2020-07-21T12:59:50Z</time>
      </trkpt>
      <trkpt lat="45.43789" lon="5.92148">
        <ele>1553.9876038185</ele>
        <time>2020-07-21T12:59:58Z</time>
      </trkpt>
      <trkpt lat="45.43782" lon="5.92155">
        <ele>1554.9870171043</ele>
        <time>2020-07-21T13:00:06Z</time>
      </trkpt>
      <trkpt lat="45.43775" lon="5.92163">
        <ele>1551.9864263788</ele>
        <time>2020-07-21T13:00:13Z</time>
      </trkpt>
      <trkpt lat="45.43771" lon="5.92174">
        <ele>1544.9858929322</ele>
        <time>2020-07-21T13:00:22Z</time>
      </trkpt>
      <trkpt lat="45.43769" lon="5.92186">
        <ele>1541.9854087765</ele>
        <time>2020-07-21T13:00:32Z</time>
      </trkpt>
      <trkpt lat="45.43768" lon="5.92198">
        <ele>1542.9849863855</ele>
        <time>2020-07-21T13:00:42Z</time>
      </trkpt>
      <trkpt lat="45.43764" lon="5.92209">
        <ele>1543.9844545388</ele>
        <time>2020-07-21T13:00:51Z</time>
      </trkpt>
      <trkpt lat="45.43759" lon="5.92219">
        <ele>1541.983906657</ele>
        <time>2020-07-21T13:00:58Z</time>
      </trkpt>
      <trkpt lat="45.43754" lon="5.92228">
        <ele>1541.9833607601</ele>
        <time>2020-07-21T13:01:08Z</time>
      </trkpt>
      <trkpt lat="45.43746" lon="5.92234">
        <ele>1541.982789374</ele>
        <time>2020-07-21T13:01:19Z</time>
      </trkpt>
      <trkpt lat="45.43739" lon="5.92236">
        <ele>1541.9823120615</ele>
        <time>2020-07-21T13:01:26Z</time>
      </trkpt>
      <trkpt lat="45.4373" lon="5.92239">
        <ele>1544.9817898828</ele>
        <time>2020-07-21T13:01:36Z</time>
      </trkpt>
      <trkpt lat="45.43722" lon="5.92243">
        <ele>1542.9812642538</ele>
        <time>2020-07-21T13:01:46Z</time>
      </trkpt>
      <trkpt lat="45.43714" lon="5.92244">
        <ele>1542.9807847708</ele>
        <time>2020-07-21T13:01:54Z</time>
      </trkpt>
      <trkpt lat="45.43705" lon="5.92244">
        <ele>1543.9803554621</ele>
        <time>2020-07-21T13:02:03Z</time>
      </trkpt>
      <trkpt lat="45.43698" lon="5.92239">
        <ele>1544.9800694909</ele>
        <time>2020-07-21T13:02:12Z</time>
      </trkpt>
      <trkpt lat="45.43689" lon="5.92238">
        <ele>1546.9796674911</ele>
        <time>2020-07-21T13:02:25Z</time>
      </trkpt>
      <trkpt lat="45.43682" lon="5.92231">
        <ele>1545.9794954829</ele>
        <time>2020-07-21T13:02:38Z</time>
      </trkpt>
      <trkpt lat="45.43674" lon="5.92225">
        <ele>1548.9792800109</ele>
        <time>2020-07-21T13:02:52Z</time>
      </trkpt>
      <trkpt lat="45.43667" lon="5.92218">
        <ele>1547.9791001669</ele>
        <time>2020-07-21T13:03:04Z</time>
      </trkpt>
      <trkpt lat="45.4366" lon="5.92212">
        <ele>1547.9788926191</ele>
        <time>2020-07-21T13:03:12Z</time>
      </trkpt>
      <trkpt lat="45.43654" lon="5.92203">
        <ele>1549.978882348</ele>
        <time>2020-07-21T13:03:20Z</time>
      </trkpt>
      <trkpt lat="45.43648" lon="5.92194">
        <ele>1551.9788431585</ele>
        <time>2020-07-21T13:03:30Z</time>
      </trkpt>
      <trkpt lat="45.43642" lon="5.92187">
        <ele>1552.9787254448</ele>
        <time>2020-07-21T13:03:42Z</time>
      </trkpt>
      <trkpt lat="45.43634" lon="5.92184">
        <ele>1555.9783886747</ele>
        <time>2020-07-21T13:03:55Z</time>
      </trkpt>
      <trkpt lat="45.43625" lon="5.92186">
        <ele>1553.9778921901</ele>
        <time>2020-07-21T13:04:02Z</time>
      </trkpt>
      <trkpt lat="45.43618" lon="5.92188">
        <ele>1554.9774020988</ele>
        <time>2020-07-21T13:04:12Z</time>
      </trkpt>
      <trkpt lat="45.43612" lon="5.92193">
        <ele>1557.9769452962</ele>
        <time>2020-07-21T13:04:18Z</time>
      </trkpt>
      <trkpt lat="45.43605" lon="5.92197">
        <ele>1559.9764718641</ele>
        <time>2020-07-21T13:04:25Z</time>
      </trkpt>
      <trkpt lat="45.43597" lon="5.92197">
        <ele>1557.9760271827</ele>
        <time>2020-07-21T13:04:30Z</time>
      </trkpt>
      <trkpt lat="45.43589" lon="5.92202">
        <ele>1560.9754837634</ele>
        <time>2020-07-21T13:04:39Z</time>
      </trkpt>
      <trkpt lat="45.43584" lon="5.9221">
        <ele>1559.9749583394</ele>
        <time>2020-07-21T13:04:46Z</time>
      </trkpt>
      <trkpt lat="45.43577" lon="5.92218">
        <ele>1560.9743826102</ele>
        <time>2020-07-21T13:04:53Z</time>
      </trkpt>
      <trkpt lat="45.43571" lon="5.92227">
        <ele>1562.9738007856</ele>
        <time>2020-07-21T13:05:01Z</time>
      </trkpt>
      <trkpt lat="45.43565" lon="5.92235">
        <ele>1563.9732754754</ele>
        <time>2020-07-21T13:05:08Z</time>
      </trkpt>
      <trkpt lat="45.43565" lon="5.92244">
        <ele>1561.9729563323</ele>
        <time>2020-07-21T13:05:13Z</time>
      </trkpt>
      <trkpt lat="45.43562" lon="5.92256">
        <ele>1558.9724496522</ele>
        <time>2020-07-21T13:05:22Z</time>
      </trkpt>
      <trkpt lat="45.43554" lon="5.92258">
        <ele>1555.9719563791</ele>
        <time>2020-07-21T13:05:31Z</time>
      </trkpt>
      <trkpt lat="45.43547" lon="5.92251">
        <ele>1553.9718358461</ele>
        <time>2020-07-21T13:05:38Z</time>
      </trkpt>
      <trkpt lat="45.43543" lon="5.92241">
        <ele>1551.9719094406</ele>
        <time>2020-07-21T13:05:45Z</time>
      </trkpt>
      <trkpt lat="45.43538" lon="5.92231">
        <ele>1551.9719495917</ele>
        <time>2020-07-21T13:05:56Z</time>
      </trkpt>
      <trkpt lat="45.43537" lon="5.92219">
        <ele>1553.9722616978</ele>
        <time>2020-07-21T13:06:11Z</time>
      </trkpt>
      <trkpt lat="45.43534" lon="5.92209">
        <ele>1556.9724042577</ele>
        <time>2020-07-21T13:06:20Z</time>
      </trkpt>
      <trkpt lat="45.4353" lon="5.92198">
        <ele>1558.9725390708</ele>
        <time>2020-07-21T13:06:28Z</time>
      </trkpt>
      <trkpt lat="45.43524" lon="5.92188">
        <ele>1558.972501911</ele>
        <time>2020-07-21T13:06:36Z</time>
      </trkpt>
      <trkpt lat="45.43521" lon="5.92177">
        <ele>1561.9726663977</ele>
        <time>2020-07-21T13:06:46Z</time>
      </trkpt>
      <trkpt lat="45.43518" lon="5.92166">
        <ele>1561.972822179</ele>
        <time>2020-07-21T13:06:53Z</time>
      </trkpt>
      <trkpt lat="45.43518" lon="5.92155">
        <ele>1563.9731539938</ele>
        <time>2020-07-21T13:07:01Z</time>
      </trkpt>
      <trkpt lat="45.43514" lon="5.92144">
        <ele>1563.9732451929</ele>
        <time>2020-07-21T13:07:09Z</time>
      </trkpt>
      <trkpt lat="45.43509" lon="5.92134">
        <ele>1562.9732844246</ele>
        <time>2020-07-21T13:07:17Z</time>
      </trkpt>
      <trkpt lat="45.43503" lon="5.92125">
        <ele>1565.9732835862</ele>
        <time>2020-07-21T13:07:31Z</time>
      </trkpt>
      <trkpt lat="45.435" lon="5.92116">
        <ele>1565.973381012</ele>
        <time>2020-07-21T13:07:38Z</time>
      </trkpt>
      <trkpt lat="45.43501" lon="5.92104">
        <ele>1562.973780905</ele>
        <time>2020-07-21T13:07:44Z</time>
      </trkpt>
      <trkpt lat="45.43497" lon="5.92093">
        <ele>1561.9739056304</ele>
        <time>2020-07-21T13:07:53Z</time>
      </trkpt>
      <trkpt lat="45.43495" lon="5.9208">
        <ele>1559.974162119</ele>
        <time>2020-07-21T13:08:02Z</time>
      </trkpt>
      <trkpt lat="45.43493" lon="5.92069">
        <ele>1557.9743793051</ele>
        <time>2020-07-21T13:08:10Z</time>
      </trkpt>
      <trkpt lat="45.43488" lon="5.9206">
        <ele>1558.9743826479</ele>
        <time>2020-07-21T13:08:18Z</time>
      </trkpt>
      <trkpt lat="45.43483" lon="5.9205">
        <ele>1560.9744085473</ele>
        <time>2020-07-21T13:08:30Z</time>
      </trkpt>
      <trkpt lat="45.43478" lon="5.92041">
        <ele>1561.9744288447</ele>
        <time>2020-07-21T13:08:39Z</time>
      </trkpt>
      <trkpt lat="45.43472" lon="5.92033">
        <ele>1562.9743290095</ele>
        <time>2020-07-21T13:08:47Z</time>
      </trkpt>
      <trkpt lat="45.43468" lon="5.92023">
        <ele>1563.9744534917</ele>
        <time>2020-07-21T13:08:56Z</time>
      </trkpt>
      <trkpt lat="45.43462" lon="5.92016">
        <ele>1565.9743130707</ele>
        <time>2020-07-21T13:09:03Z</time>
      </trkpt>
      <trkpt lat="45.43458" lon="5.92009">
        <ele>1566.9742877994</ele>
        <time>2020-07-21T13:09:12Z</time>
      </trkpt>
      <trkpt lat="45.43452" lon="5.92001">
        <ele>1567.9742436161</ele>
        <time>2020-07-21T13:09:17Z</time>
      </trkpt>
      <trkpt lat="45.43447" lon="5.91993">
        <ele>1566.9742199516</ele>
        <time>2020-07-21T13:09:25Z</time>
      </trkpt>
      <trkpt lat="45.43444" lon="5.91983">
        <ele>1568.9743632514</ele>
        <time>2020-07-21T13:09:32Z</time>
      </trkpt>
      <trkpt lat="45.43441" lon="5.91971">
        <ele>1571.9745500756</ele>
        <time>2020-07-21T13:09:42Z</time>
      </trkpt>
      <trkpt lat="45.43437" lon="5.91961">
        <ele>1573.9746291244</ele>
        <time>2020-07-21T13:09:52Z</time>
      </trkpt>
      <trkpt lat="45.43431" lon="5.91953">
        <ele>1575.9745208608</ele>
        <time>2020-07-21T13:10:04Z</time>
      </trkpt>
      <trkpt lat="45.43427" lon="5.91942">
        <ele>1575.9746578244</ele>
        <time>2020-07-21T13:10:17Z</time>
      </trkpt>
      <trkpt lat="45.4342" lon="5.91933">
        <ele>1574.9745450168</ele>
        <time>2020-07-21T13:10:31Z</time>
      </trkpt>
      <trkpt lat="45.43415" lon="5.91924">
        <ele>1575.9745539836</ele>
        <time>2020-07-21T13:10:42Z</time>
      </trkpt>
      <trkpt lat="45.4341" lon="5.91915">
        <ele>1578.9745540902</ele>
        <time>2020-07-21T13:10:53Z</time>
      </trkpt>
      <trkpt lat="45.43404" lon="5.91905">
        <ele>1577.9745489305</ele>
        <time>2020-07-21T13:11:04Z</time>
      </trkpt>
      <trkpt lat="45.434" lon="5.91895">
        <ele>1576.9746239308</ele>
        <time>2020-07-21T13:11:14Z</time>
      </trkpt>
      <trkpt lat="45.43398" lon="5.91882">
        <ele>1567.9748855581</ele>
        <time>2020-07-21T13:12:55Z</time>
      </trkpt>
      <trkpt lat="45.43399" lon="5.9187">
        <ele>1571.9753060514</ele>
        <time>2020-07-21T13:14:56Z</time>
      </trkpt>
      <trkpt lat="45.43398" lon="5.91857">
        <ele>1579.9756000287</ele>
        <time>2020-07-21T13:15:20Z</time>
      </trkpt>
      <trkpt lat="45.43393" lon="5.91846">
        <ele>1582.975698763</ele>
        <time>2020-07-21T13:15:39Z</time>
      </trkpt>
      <trkpt lat="45.43387" lon="5.91838">
        <ele>1586.9756074793</ele>
        <time>2020-07-21T13:15:59Z</time>
      </trkpt>
      <trkpt lat="45.43382" lon="5.91827">
        <ele>1585.9756676228</ele>
        <time>2020-07-21T13:16:22Z</time>
      </trkpt>
      <trkpt lat="45.43386" lon="5.91816">
        <ele>1589.9761855859</ele>
        <time>2020-07-21T13:17:10Z</time>
      </trkpt>
      <trkpt lat="45.43379" lon="5.91808">
        <ele>1594.976060952</ele>
        <time>2020-07-21T13:17:39Z</time>
      </trkpt>
      <trkpt lat="45.43373" lon="5.91799">
        <ele>1597.9760376343</ele>
        <time>2020-07-21T13:17:51Z</time>
      </trkpt>
      <trkpt lat="45.43371" lon="5.91787">
        <ele>1598.9762269341</ele>
        <time>2020-07-21T13:18:05Z</time>
      </trkpt>
      <trkpt lat="45.43365" lon="5.91779">
        <ele>1598.9761347252</ele>
        <time>2020-07-21T13:18:14Z</time>
      </trkpt>
      <trkpt lat="45.43358" lon="5.91771">
        <ele>1601.9760201816</ele>
        <time>2020-07-21T13:18:26Z</time>
      </trkpt>
      <trkpt lat="45.43354" lon="5.91761">
        <ele>1607.9761267959</ele>
        <time>2020-07-21T13:18:40Z</time>
      </trkpt>
      <trkpt lat="45.4335" lon="5.9175">
        <ele>1610.9762484337</ele>
        <time>2020-07-21T13:18:53Z</time>
      </trkpt>
      <trkpt lat="45.43348" lon="5.91738">
        <ele>1611.9764881035</ele>
        <time>2020-07-21T13:19:04Z</time>
      </trkpt>
      <trkpt lat="45.43346" lon="5.91726">
        <ele>1609.9766905974</ele>
        <time>2020-07-21T13:19:17Z</time>
      </trkpt>
      <trkpt lat="45.4335" lon="5.91716">
        <ele>1610.9772311251</ele>
        <time>2020-07-21T13:19:39Z</time>
      </trkpt>
      <trkpt lat="45.43347" lon="5.91704">
        <ele>1614.9774166179</ele>
        <time>2020-07-21T13:19:56Z</time>
      </trkpt>
      <trkpt lat="45.43341" lon="5.91696">
        <ele>1616.9773167891</ele>
        <time>2020-07-21T13:20:12Z</time>
      </trkpt>
      <trkpt lat="45.43335" lon="5.91685">
        <ele>1620.9773190654</ele>
        <time>2020-07-21T13:20:33Z</time>
      </trkpt>
      <trkpt lat="45.4333" lon="5.91675">
        <ele>1623.9773432134</ele>
        <time>2020-07-21T13:20:52Z</time>
      </trkpt>
      <trkpt lat="45.43325" lon="5.91665">
        <ele>1626.9773944582</ele>
        <time>2020-07-21T13:21:08Z</time>
      </trkpt>
      <trkpt lat="45.43319" lon="5.91656">
        <ele>1626.9772988433</ele>
        <time>2020-07-21T13:21:21Z</time>
      </trkpt>
      <trkpt lat="45.43315" lon="5.91646">
        <ele>1634.9773846537</ele>
        <time>2020-07-21T13:21:49Z</time>
      </trkpt>
      <trkpt lat="45.43309" lon="5.91637">
        <ele>1634.9773418653</ele>
        <time>2020-07-21T13:22:08Z</time>
      </trkpt>
      <trkpt lat="45.43304" lon="5.91626">
        <ele>1635.977373147</ele>
        <time>2020-07-21T13:22:24Z</time>
      </trkpt>
      <trkpt lat="45.43299" lon="5.91616">
        <ele>1639.9774180963</ele>
        <time>2020-07-21T13:22:43Z</time>
      </trkpt>
      <trkpt lat="45.43293" lon="5.91609">
        <ele>1638.977318848</ele>
        <time>2020-07-21T13:22:54Z</time>
      </trkpt>
      <trkpt lat="45.43286" lon="5.916">
        <ele>1641.9772115699</ele>
        <time>2020-07-21T13:23:11Z</time>
      </trkpt>
      <trkpt lat="45.43283" lon="5.91589">
        <ele>1643.977356747</ele>
        <time>2020-07-21T13:23:36Z</time>
      </trkpt>
      <trkpt lat="45.4328" lon="5.91577">
        <ele>1645.9775329384</ele>
        <time>2020-07-21T13:23:51Z</time>
      </trkpt>
      <trkpt lat="45.43272" lon="5.91572">
        <ele>1648.9772494094</ele>
        <time>2020-07-21T13:24:10Z</time>
      </trkpt>
      <trkpt lat="45.43268" lon="5.91561">
        <ele>1650.977393153</ele>
        <time>2020-07-21T13:24:29Z</time>
      </trkpt>
      <trkpt lat="45.43263" lon="5.91551">
        <ele>1652.9773703899</ele>
        <time>2020-07-21T13:24:47Z</time>
      </trkpt>
      <trkpt lat="45.43257" lon="5.91541">
        <ele>1653.9773658227</ele>
        <time>2020-07-21T13:25:03Z</time>
      </trkpt>
      <trkpt lat="45.43252" lon="5.91531">
        <ele>1655.977398468</ele>
        <time>2020-07-21T13:25:28Z</time>
      </trkpt>
      <trkpt lat="45.43249" lon="5.9152">
        <ele>1661.9775598699</ele>
        <time>2020-07-21T13:25:58Z</time>
      </trkpt>
      <trkpt lat="45.43251" lon="5.91507">
        <ele>1665.9780192657</ele>
        <time>2020-07-21T13:26:35Z</time>
      </trkpt>
      <trkpt lat="45.43251" lon="5.91495">
        <ele>1667.9784149356</ele>
        <time>2020-07-21T13:26:53Z</time>
      </trkpt>
      <trkpt lat="45.43253" lon="5.91483">
        <ele>1669.9788272665</ele>
        <time>2020-07-21T13:27:07Z</time>
      </trkpt>
      <trkpt lat="45.43249" lon="5.91472">
        <ele>1669.9789584513</ele>
        <time>2020-07-21T13:27:22Z</time>
      </trkpt>
      <trkpt lat="45.43246" lon="5.9146">
        <ele>1670.9791288346</ele>
        <time>2020-07-21T13:27:36Z</time>
      </trkpt>
      <trkpt lat="45.43238" lon="5.91454">
        <ele>1672.9788808539</ele>
        <time>2020-07-21T13:27:58Z</time>
      </trkpt>
      <trkpt lat="45.43233" lon="5.91445">
        <ele>1680.978883861</ele>
        <time>2020-07-21T13:28:37Z</time>
      </trkpt>
      <trkpt lat="45.43224" lon="5.91441">
        <ele>1684.978543323</ele>
        <time>2020-07-21T13:29:08Z</time>
      </trkpt>
      <trkpt lat="45.43219" lon="5.9143">
        <ele>1701.9785899781</ele>
        <time>2020-07-21T13:30:19Z</time>
      </trkpt>
      <trkpt lat="45.43218" lon="5.91418">
        <ele>1708.9788567474</ele>
        <time>2020-07-21T13:30:41Z</time>
      </trkpt>
      <trkpt lat="45.43212" lon="5.91409">
        <ele>1711.9788183017</ele>
        <time>2020-07-21T13:31:10Z</time>
      </trkpt>
      <trkpt lat="45.43208" lon="5.91399">
        <ele>1717.9788724497</ele>
        <time>2020-07-21T13:31:38Z</time>
      </trkpt>
      <trkpt lat="45.43202" lon="5.9139">
        <ele>1716.9788409489</ele>
        <time>2020-07-21T13:31:48Z</time>
      </trkpt>
      <trkpt lat="45.432" lon="5.91382">
        <ele>1717.9789535292</ele>
        <time>2020-07-21T13:31:57Z</time>
      </trkpt>
      <trkpt lat="45.43191" lon="5.91378">
        <ele>1715.9785663817</ele>
        <time>2020-07-21T13:32:02Z</time>
      </trkpt>
      <trkpt lat="45.4319" lon="5.91379">
        <ele>1715.9785271307</ele>
        <time>2020-07-21T13:32:08Z</time>
      </trkpt>
      <trkpt lat="45.43183" lon="5.91367">
        <ele>1718.9784815075</ele>
        <time>2020-07-21T13:32:48Z</time>
      </trkpt>
      <trkpt lat="45.43176" lon="5.91361">
        <ele>1716.978291956</ele>
        <time>2020-07-21T13:32:53Z</time>
      </trkpt>
      <trkpt lat="45.43169" lon="5.91354">
        <ele>1713.9780858316</ele>
        <time>2020-07-21T13:32:58Z</time>
      </trkpt>
      <trkpt lat="45.43161" lon="5.91348">
        <ele>1714.9778432414</ele>
        <time>2020-07-21T13:33:21Z</time>
      </trkpt>
      <trkpt lat="45.43153" lon="5.91342">
        <ele>1714.9775918885</ele>
        <time>2020-07-21T13:33:32Z</time>
      </trkpt>
      <trkpt lat="45.43146" lon="5.91337">
        <ele>1717.9773586401</ele>
        <time>2020-07-21T13:33:54Z</time>
      </trkpt>
      <trkpt lat="45.43138" lon="5.91331">
        <ele>1718.9771159777</ele>
        <time>2020-07-21T13:34:06Z</time>
      </trkpt>
      <trkpt lat="45.43139" lon="5.91325">
        <ele>1722.9773299623</ele>
        <time>2020-07-21T13:34:11Z</time>
      </trkpt>
      <trkpt lat="45.4314" lon="5.91313">
        <ele>1723.9777523188</ele>
        <time>2020-07-21T13:34:19Z</time>
      </trkpt>
      <trkpt lat="45.43131" lon="5.91313">
        <ele>1726.9772753232</ele>
        <time>2020-07-21T13:34:28Z</time>
      </trkpt>
      <trkpt lat="45.43124" lon="5.91305">
        <ele>1728.9771122138</ele>
        <time>2020-07-21T13:34:40Z</time>
      </trkpt>
      <trkpt lat="45.43121" lon="5.91295">
        <ele>1733.9772090515</ele>
        <time>2020-07-21T13:34:53Z</time>
      </trkpt>
      <trkpt lat="45.43114" lon="5.9129">
        <ele>1730.9769862331</ele>
        <time>2020-07-21T13:34:57Z</time>
      </trkpt>
      <trkpt lat="45.43107" lon="5.91284">
        <ele>1727.9767770131</ele>
        <time>2020-07-21T13:35:05Z</time>
      </trkpt>
      <trkpt lat="45.43099" lon="5.91279">
        <ele>1727.9764679364</ele>
        <time>2020-07-21T13:35:20Z</time>
      </trkpt>
      <trkpt lat="45.43092" lon="5.91271">
        <ele>1731.9763489298</ele>
        <time>2020-07-21T13:35:34Z</time>
      </trkpt>
      <trkpt lat="45.43086" lon="5.91263">
        <ele>1730.9762910659</ele>
        <time>2020-07-21T13:35:45Z</time>
      </trkpt>
      <trkpt lat="45.43082" lon="5.91253">
        <ele>1734.9763373878</ele>
        <time>2020-07-21T13:35:58Z</time>
      </trkpt>
      <trkpt lat="45.4308" lon="5.9124">
        <ele>1739.9766231907</ele>
        <time>2020-07-21T13:36:15Z</time>
      </trkpt>
      <trkpt lat="45.43078" lon="5.91229">
        <ele>1742.9767984716</ele>
        <time>2020-07-21T13:36:29Z</time>
      </trkpt>
      <trkpt lat="45.43073" lon="5.91219">
        <ele>1744.9768409049</ele>
        <time>2020-07-21T13:36:45Z</time>
      </trkpt>
      <trkpt lat="45.43069" lon="5.91208">
        <ele>1746.9769365172</ele>
        <time>2020-07-21T13:36:59Z</time>
      </trkpt>
      <trkpt lat="45.43062" lon="5.912">
        <ele>1748.9768018491</ele>
        <time>2020-07-21T13:37:14Z</time>
      </trkpt>
      <trkpt lat="45.4306" lon="5.91188">
        <ele>1749.9770386214</ele>
        <time>2020-07-21T13:37:26Z</time>
      </trkpt>
      <trkpt lat="45.43054" lon="5.91179">
        <ele>1750.9769975641</ele>
        <time>2020-07-21T13:37:42Z</time>
      </trkpt>
      <trkpt lat="45.43049" lon="5.91169">
        <ele>1751.9770234718</ele>
        <time>2020-07-21T13:37:54Z</time>
      </trkpt>
      <trkpt lat="45.43045" lon="5.91158">
        <ele>1750.9770887142</ele>
        <time>2020-07-21T13:38:06Z</time>
      </trkpt>
      <trkpt lat="45.4304" lon="5.91149">
        <ele>1752.977080115</ele>
        <time>2020-07-21T13:38:16Z</time>
      </trkpt>
      <trkpt lat="45.43033" lon="5.91141">
        <ele>1751.9769148945</ele>
        <time>2020-07-21T13:38:27Z</time>
      </trkpt>
      <trkpt lat="45.43027" lon="5.91132">
        <ele>1750.976867614</ele>
        <time>2020-07-21T13:38:50Z</time>
      </trkpt>
      <trkpt lat="45.43023" lon="5.91122">
        <ele>1755.9769607105</ele>
        <time>2020-07-21T13:39:01Z</time>
      </trkpt>
      <trkpt lat="45.43017" lon="5.91114">
        <ele>1759.9768422162</ele>
        <time>2020-07-21T13:39:13Z</time>
      </trkpt>
      <trkpt lat="45.43014" lon="5.91103">
        <ele>1758.9769679608</ele>
        <time>2020-07-21T13:39:22Z</time>
      </trkpt>
      <trkpt lat="45.43009" lon="5.91093">
        <ele>1760.9770077223</ele>
        <time>2020-07-21T13:39:33Z</time>
      </trkpt>
      <trkpt lat="45.43005" lon="5.91082">
        <ele>1760.9771293096</ele>
        <time>2020-07-21T13:39:43Z</time>
      </trkpt>
      <trkpt lat="45.43" lon="5.91072">
        <ele>1762.977099511</ele>
        <time>2020-07-21T13:40:19Z</time>
      </trkpt>
      <trkpt lat="45.42994" lon="5.91062">
        <ele>1761.9770964988</ele>
        <time>2020-07-21T13:40:31Z</time>
      </trkpt>
      <trkpt lat="45.42989" lon="5.91053">
        <ele>1762.9771092389</ele>
        <time>2020-07-21T13:40:49Z</time>
      </trkpt>
      <trkpt lat="45.42986" lon="5.91041">
        <ele>1764.9772619657</ele>
        <time>2020-07-21T13:41:04Z</time>
      </trkpt>
      <trkpt lat="45.42984" lon="5.91029">
        <ele>1764.9775202345</ele>
        <time>2020-07-21T13:41:27Z</time>
      </trkpt>
      <trkpt lat="45.42983" lon="5.91016">
        <ele>1766.9778251268</ele>
        <time>2020-07-21T13:41:42Z</time>
      </trkpt>
      <trkpt lat="45.4298" lon="5.91005">
        <ele>1766.9779674032</ele>
        <time>2020-07-21T13:41:53Z</time>
      </trkpt>
      <trkpt lat="45.42979" lon="5.90993">
        <ele>1770.9782422562</ele>
        <time>2020-07-21T13:42:06Z</time>
      </trkpt>
      <trkpt lat="45.42978" lon="5.90981">
        <ele>1772.9785337464</ele>
        <time>2020-07-21T13:42:19Z</time>
      </trkpt>
      <trkpt lat="45.42976" lon="5.90969">
        <ele>1776.9787945795</ele>
        <time>2020-07-21T13:42:32Z</time>
      </trkpt>
      <trkpt lat="45.42975" lon="5.90957">
        <ele>1778.979073869</ele>
        <time>2020-07-21T13:42:50Z</time>
      </trkpt>
      <trkpt lat="45.42974" lon="5.90944">
        <ele>1784.9793620357</ele>
        <time>2020-07-21T13:43:07Z</time>
      </trkpt>
      <trkpt lat="45.4297" lon="5.90933">
        <ele>1787.9795050435</ele>
        <time>2020-07-21T13:43:21Z</time>
      </trkpt>
      <trkpt lat="45.42966" lon="5.90923">
        <ele>1789.9795481732</ele>
        <time>2020-07-21T13:43:35Z</time>
      </trkpt>
      <trkpt lat="45.42962" lon="5.90913">
        <ele>1789.9796408795</ele>
        <time>2020-07-21T13:43:44Z</time>
      </trkpt>
      <trkpt lat="45.42957" lon="5.90903">
        <ele>1788.9796533109</ele>
        <time>2020-07-21T13:43:53Z</time>
      </trkpt>
      <trkpt lat="45.42951" lon="5.90894">
        <ele>1788.9795548444</ele>
        <time>2020-07-21T13:44:04Z</time>
      </trkpt>
      <trkpt lat="45.42943" lon="5.90888">
        <ele>1788.9793198075</ele>
        <time>2020-07-21T13:44:17Z</time>
      </trkpt>
      <trkpt lat="45.42939" lon="5.90877">
        <ele>1789.9794171033</ele>
        <time>2020-07-21T13:44:30Z</time>
      </trkpt>
      <trkpt lat="45.42935" lon="5.90866">
        <ele>1790.9795225558</ele>
        <time>2020-07-21T13:44:46Z</time>
      </trkpt>
      <trkpt lat="45.42929" lon="5.90857">
        <ele>1791.9794584683</ele>
        <time>2020-07-21T13:45:18Z</time>
      </trkpt>
      <trkpt lat="45.42924" lon="5.90846">
        <ele>1792.979497856</ele>
        <time>2020-07-21T13:45:34Z</time>
      </trkpt>
      <trkpt lat="45.42919" lon="5.90836">
        <ele>1794.9794853217</ele>
        <time>2020-07-21T13:45:53Z</time>
      </trkpt>
      <trkpt lat="45.42916" lon="5.90824">
        <ele>1797.9796955682</ele>
        <time>2020-07-21T13:46:13Z</time>
      </trkpt>
      <trkpt lat="45.42917" lon="5.90812">
        <ele>1797.9800547867</ele>
        <time>2020-07-21T13:46:44Z</time>
      </trkpt>
      <trkpt lat="45.42915" lon="5.908">
        <ele>1796.9803262064</ele>
        <time>2020-07-21T13:46:58Z</time>
      </trkpt>
      <trkpt lat="45.42921" lon="5.9079">
        <ele>1797.9808995734</ele>
        <time>2020-07-21T13:47:16Z</time>
      </trkpt>
      <trkpt lat="45.42929" lon="5.90785">
        <ele>1800.9814898287</ele>
        <time>2020-07-21T13:47:32Z</time>
      </trkpt>
      <trkpt lat="45.42934" lon="5.90775">
        <ele>1802.9820726927</ele>
        <time>2020-07-21T13:47:50Z</time>
      </trkpt>
      <trkpt lat="45.42942" lon="5.9077">
        <ele>1801.9826543497</ele>
        <time>2020-07-21T13:48:10Z</time>
      </trkpt>
      <trkpt lat="45.4295" lon="5.90763">
        <ele>1803.9832604449</ele>
        <time>2020-07-21T13:48:26Z</time>
      </trkpt>
      <trkpt lat="45.42953" lon="5.90751">
        <ele>1807.9837937886</ele>
        <time>2020-07-21T13:48:49Z</time>
      </trkpt>
      <trkpt lat="45.4295" lon="5.90741">
        <ele>1807.9839348936</ele>
        <time>2020-07-21T13:49:07Z</time>
      </trkpt>
      <trkpt lat="45.42944" lon="5.90732">
        <ele>1809.9838328202</ele>
        <time>2020-07-21T13:49:33Z</time>
      </trkpt>
      <trkpt lat="45.42941" lon="5.90721">
        <ele>1804.9840147145</ele>
        <time>2020-07-21T13:52:24Z</time>
      </trkpt>
      <trkpt lat="45.42936" lon="5.90713">
        <ele>1803.9839359028</ele>
        <time>2020-07-21T13:52:34Z</time>
      </trkpt>
      <trkpt lat="45.42927" lon="5.90714">
        <ele>1804.9834476155</ele>
        <time>2020-07-21T13:52:43Z</time>
      </trkpt>
      <trkpt lat="45.42919" lon="5.90715">
        <ele>1805.9829671876</ele>
        <time>2020-07-21T13:52:51Z</time>
      </trkpt>
      <trkpt lat="45.42911" lon="5.90718">
        <ele>1806.9824211565</ele>
        <time>2020-07-21T13:53:01Z</time>
      </trkpt>
      <trkpt lat="45.42902" lon="5.90721">
        <ele>1808.9818817215</ele>
        <time>2020-07-21T13:53:11Z</time>
      </trkpt>
      <trkpt lat="45.42894" lon="5.90721">
        <ele>1808.9814037796</ele>
        <time>2020-07-21T13:53:21Z</time>
      </trkpt>
      <trkpt lat="45.42897" lon="5.90709">
        <ele>1810.9819193632</ele>
        <time>2020-07-21T13:53:35Z</time>
      </trkpt>
      <trkpt lat="45.42902" lon="5.90698">
        <ele>1812.9824780074</ele>
        <time>2020-07-21T13:53:58Z</time>
      </trkpt>
      <trkpt lat="45.42908" lon="5.9069">
        <ele>1814.9830638488</ele>
        <time>2020-07-21T13:54:11Z</time>
      </trkpt>
      <trkpt lat="45.42912" lon="5.90679">
        <ele>1817.9836088464</ele>
        <time>2020-07-21T13:54:34Z</time>
      </trkpt>
      <trkpt lat="45.42917" lon="5.90669">
        <ele>1819.9841971274</ele>
        <time>2020-07-21T13:54:48Z</time>
      </trkpt>
      <trkpt lat="45.42923" lon="5.9066">
        <ele>1821.9847816386</ele>
        <time>2020-07-21T13:54:59Z</time>
      </trkpt>
      <trkpt lat="45.42928" lon="5.9065">
        <ele>1823.9853387773</ele>
        <time>2020-07-21T13:55:13Z</time>
      </trkpt>
      <trkpt lat="45.42936" lon="5.90644">
        <ele>1824.9859244808</ele>
        <time>2020-07-21T13:55:23Z</time>
      </trkpt>
      <trkpt lat="45.42942" lon="5.90635">
        <ele>1824.9865289781</ele>
        <time>2020-07-21T13:55:33Z</time>
      </trkpt>
      <trkpt lat="45.42948" lon="5.90627">
        <ele>1825.9870676563</ele>
        <time>2020-07-21T13:55:41Z</time>
      </trkpt>
      <trkpt lat="45.42953" lon="5.90618">
        <ele>1826.9876313187</ele>
        <time>2020-07-21T13:55:50Z</time>
      </trkpt>
      <trkpt lat="45.4296" lon="5.9061">
        <ele>1827.9882133095</ele>
        <time>2020-07-21T13:56:00Z</time>
      </trkpt>
      <trkpt lat="45.42967" lon="5.90605">
        <ele>1827.9887613495</ele>
        <time>2020-07-21T13:56:08Z</time>
      </trkpt>
      <trkpt lat="45.42975" lon="5.90601">
        <ele>1827.9892998599</ele>
        <time>2020-07-21T13:56:17Z</time>
      </trkpt>
      <trkpt lat="45.42982" lon="5.90594">
        <ele>1827.9898877452</ele>
        <time>2020-07-21T13:56:27Z</time>
      </trkpt>
      <trkpt lat="45.4299" lon="5.90588">
        <ele>1828.9904792347</ele>
        <time>2020-07-21T13:56:36Z</time>
      </trkpt>
      <trkpt lat="45.42996" lon="5.90581">
        <ele>1830.9910668049</ele>
        <time>2020-07-21T13:56:44Z</time>
      </trkpt>
      <trkpt lat="45.43001" lon="5.90572">
        <ele>1830.991595421</ele>
        <time>2020-07-21T13:56:52Z</time>
      </trkpt>
      <trkpt lat="45.43001" lon="5.90559">
        <ele>1829.9919493505</ele>
        <time>2020-07-21T13:57:00Z</time>
      </trkpt>
      <trkpt lat="45.43008" lon="5.90551">
        <ele>1830.9925596204</ele>
        <time>2020-07-21T13:57:11Z</time>
      </trkpt>
      <trkpt lat="45.43016" lon="5.90547">
        <ele>1831.9931120833</ele>
        <time>2020-07-21T13:57:20Z</time>
      </trkpt>
      <trkpt lat="45.43024" lon="5.90543">
        <ele>1833.9936961962</ele>
        <time>2020-07-21T13:57:30Z</time>
      </trkpt>
      <trkpt lat="45.43032" lon="5.90539">
        <ele>1834.9942536823</ele>
        <time>2020-07-21T13:57:38Z</time>
      </trkpt>
      <trkpt lat="45.4304" lon="5.90532">
        <ele>1835.9948634743</ele>
        <time>2020-07-21T13:57:47Z</time>
      </trkpt>
      <trkpt lat="45.43047" lon="5.90527">
        <ele>1837.9954256312</ele>
        <time>2020-07-21T13:57:58Z</time>
      </trkpt>
      <trkpt lat="45.43054" lon="5.9052">
        <ele>1838.9959915125</ele>
        <time>2020-07-21T13:58:11Z</time>
      </trkpt>
      <trkpt lat="45.43062" lon="5.90516">
        <ele>1839.9965850088</ele>
        <time>2020-07-21T13:58:24Z</time>
      </trkpt>
      <trkpt lat="45.43064" lon="5.90504">
        <ele>1840.997045962</ele>
        <time>2020-07-21T13:58:42Z</time>
      </trkpt>
      <trkpt lat="45.43071" lon="5.90495">
        <ele>1840.9976455002</ele>
        <time>2020-07-21T13:59:01Z</time>
      </trkpt>
      <trkpt lat="45.43079" lon="5.9049">
        <ele>1840.9982433446</ele>
        <time>2020-07-21T13:59:16Z</time>
      </trkpt>
      <trkpt lat="45.43084" lon="5.90481">
        <ele>1842.9988152835</ele>
        <time>2020-07-21T13:59:40Z</time>
      </trkpt>
      <trkpt lat="45.43093" lon="5.90479">
        <ele>1842.9993488772</ele>
        <time>2020-07-21T13:59:50Z</time>
      </trkpt>
      <trkpt lat="45.43101" lon="5.90476">
        <ele>1843.9998820779</ele>
        <time>2020-07-21T13:59:59Z</time>
      </trkpt>
      <trkpt lat="45.4311" lon="5.90475">
        <ele>1845.0003793882</ele>
        <time>2020-07-21T14:00:08Z</time>
      </trkpt>
      <trkpt lat="45.43118" lon="5.90472">
        <ele>1848.0009317417</ele>
        <time>2020-07-21T14:00:18Z</time>
      </trkpt>
      <trkpt lat="45.43126" lon="5.90469">
        <ele>1849.0014509365</ele>
        <time>2020-07-21T14:00:33Z</time>
      </trkpt>
      <trkpt lat="45.43135" lon="5.90466">
        <ele>1851.0020229403</ele>
        <time>2020-07-21T14:00:44Z</time>
      </trkpt>
      <trkpt lat="45.43143" lon="5.90464">
        <ele>1851.0025565787</ele>
        <time>2020-07-21T14:00:53Z</time>
      </trkpt>
      <trkpt lat="45.43151" lon="5.90459">
        <ele>1851.0031359912</ele>
        <time>2020-07-21T14:01:05Z</time>
      </trkpt>
      <trkpt lat="45.4316" lon="5.9046">
        <ele>1852.0035687131</ele>
        <time>2020-07-21T14:01:13Z</time>
      </trkpt>
      <trkpt lat="45.43167" lon="5.90455">
        <ele>1853.0041439948</ele>
        <time>2020-07-21T14:01:42Z</time>
      </trkpt>
      <trkpt lat="45.43176" lon="5.90452">
        <ele>1854.004689065</ele>
        <time>2020-07-21T14:02:03Z</time>
      </trkpt>
      <trkpt lat="45.43184" lon="5.9045">
        <ele>1855.0052014123</ele>
        <time>2020-07-21T14:02:11Z</time>
      </trkpt>
      <trkpt lat="45.4319" lon="5.90442">
        <ele>1856.0058006466</ele>
        <time>2020-07-21T14:02:21Z</time>
      </trkpt>
      <trkpt lat="45.43198" lon="5.90435">
        <ele>1856.006400151</ele>
        <time>2020-07-21T14:02:30Z</time>
      </trkpt>
      <trkpt lat="45.43205" lon="5.90432">
        <ele>1857.0068952876</ele>
        <time>2020-07-21T14:02:37Z</time>
      </trkpt>
      <trkpt lat="45.43214" lon="5.90433">
        <ele>1858.0073617049</ele>
        <time>2020-07-21T14:02:45Z</time>
      </trkpt>
      <trkpt lat="45.43221" lon="5.90428">
        <ele>1859.0079026717</ele>
        <time>2020-07-21T14:02:53Z</time>
      </trkpt>
      <trkpt lat="45.43228" lon="5.90421">
        <ele>1861.0085010704</ele>
        <time>2020-07-21T14:03:03Z</time>
      </trkpt>
      <trkpt lat="45.43236" lon="5.90415">
        <ele>1863.0090922092</ele>
        <time>2020-07-21T14:03:15Z</time>
      </trkpt>
      <trkpt lat="45.43243" lon="5.90409">
        <ele>1866.0096932424</ele>
        <time>2020-07-21T14:03:27Z</time>
      </trkpt>
      <trkpt lat="45.43247" lon="5.90403">
        <ele>1866.0100874847</ele>
        <time>2020-07-21T14:04:11Z</time>
      </trkpt>
      <trkpt lat="45.43247" lon="5.90403">
        <ele>1866.0100874847</ele>
        <time>2020-07-21T14:04:12Z</time>
      </trkpt>
      <trkpt lat="45.43246" lon="5.90408">
        <ele>1860.0098588444</ele>
        <time>2020-07-21T14:49:00Z</time>
      </trkpt>
      <trkpt lat="45.43242" lon="5.90413">
        <ele>1861.0095174503</ele>
        <time>2020-07-21T14:49:05Z</time>
      </trkpt>
      <trkpt lat="45.43234" lon="5.90416">
        <ele>1866.0089446852</ele>
        <time>2020-07-21T14:49:55Z</time>
      </trkpt>
      <trkpt lat="45.43225" lon="5.90421">
        <ele>1864.0083582811</ele>
        <time>2020-07-21T14:50:06Z</time>
      </trkpt>
      <trkpt lat="45.43218" lon="5.90428">
        <ele>1863.0077577854</ele>
        <time>2020-07-21T14:50:14Z</time>
      </trkpt>
      <trkpt lat="45.43212" lon="5.90435">
        <ele>1861.0071855454</ele>
        <time>2020-07-21T14:52:14Z</time>
      </trkpt>
      <trkpt lat="45.43203" lon="5.90435">
        <ele>1859.0067110357</ele>
        <time>2020-07-21T14:52:23Z</time>
      </trkpt>
      <trkpt lat="45.43195" lon="5.9044">
        <ele>1855.0061164015</ele>
        <time>2020-07-21T14:52:36Z</time>
      </trkpt>
      <trkpt lat="45.43188" lon="5.90447">
        <ele>1853.0055452723</ele>
        <time>2020-07-21T14:52:49Z</time>
      </trkpt>
      <trkpt lat="45.4318" lon="5.90452">
        <ele>1853.0049671746</ele>
        <time>2020-07-21T14:52:58Z</time>
      </trkpt>
      <trkpt lat="45.43172" lon="5.90454">
        <ele>1856.0044346936</ele>
        <time>2020-07-21T14:53:40Z</time>
      </trkpt>
      <trkpt lat="45.43164" lon="5.90458">
        <ele>1854.0038480225</ele>
        <time>2020-07-21T14:53:50Z</time>
      </trkpt>
      <trkpt lat="45.43155" lon="5.90461">
        <ele>1851.0033017396</ele>
        <time>2020-07-21T14:54:02Z</time>
      </trkpt>
      <trkpt lat="45.43147" lon="5.90462">
        <ele>1848.0028327535</ele>
        <time>2020-07-21T14:54:12Z</time>
      </trkpt>
      <trkpt lat="45.43139" lon="5.90466">
        <ele>1848.0022934696</ele>
        <time>2020-07-21T14:54:21Z</time>
      </trkpt>
      <trkpt lat="45.43131" lon="5.90469">
        <ele>1847.0017345321</ele>
        <time>2020-07-21T14:54:30Z</time>
      </trkpt>
      <trkpt lat="45.43122" lon="5.90471">
        <ele>1846.0011989042</ele>
        <time>2020-07-21T14:54:37Z</time>
      </trkpt>
      <trkpt lat="45.43114" lon="5.90474">
        <ele>1844.0006456946</ele>
        <time>2020-07-21T14:54:46Z</time>
      </trkpt>
      <trkpt lat="45.43106" lon="5.90476">
        <ele>1844.0001199217</ele>
        <time>2020-07-21T14:54:54Z</time>
      </trkpt>
      <trkpt lat="45.43098" lon="5.90481">
        <ele>1842.999544717</ele>
        <time>2020-07-21T14:55:02Z</time>
      </trkpt>
      <trkpt lat="45.4309" lon="5.90483">
        <ele>1841.9990417656</ele>
        <time>2020-07-21T14:55:10Z</time>
      </trkpt>
      <trkpt lat="45.43081" lon="5.90483">
        <ele>1841.9985728256</ele>
        <time>2020-07-21T14:57:12Z</time>
      </trkpt>
      <trkpt lat="45.43073" lon="5.90485">
        <ele>1841.9980667653</ele>
        <time>2020-07-21T14:57:20Z</time>
      </trkpt>
      <trkpt lat="45.43065" lon="5.90485">
        <ele>1843.9976469956</ele>
        <time>2020-07-21T14:57:29Z</time>
      </trkpt>
      <trkpt lat="45.43059" lon="5.90481">
        <ele>1841.9973767092</ele>
        <time>2020-07-21T14:57:35Z</time>
      </trkpt>
      <trkpt lat="45.4305" lon="5.90483">
        <ele>1840.9968472618</ele>
        <time>2020-07-21T14:57:46Z</time>
      </trkpt>
      <trkpt lat="45.43042" lon="5.90482">
        <ele>1847.9964340911</ele>
        <time>2020-07-21T14:57:55Z</time>
      </trkpt>
      <trkpt lat="45.43033" lon="5.90488">
        <ele>1839.9957917097</ele>
        <time>2020-07-21T14:57:59Z</time>
      </trkpt>
      <trkpt lat="45.43023" lon="5.90483">
        <ele>1840.9953826546</ele>
        <time>2020-07-21T14:58:03Z</time>
      </trkpt>
      <trkpt lat="45.43017" lon="5.90479">
        <ele>1837.9951642918</ele>
        <time>2020-07-21T14:58:16Z</time>
      </trkpt>
      <trkpt lat="45.43008" lon="5.90474">
        <ele>1839.994828713</ele>
        <time>2020-07-21T14:58:20Z</time>
      </trkpt>
      <trkpt lat="45.43001" lon="5.90473">
        <ele>1839.9944359717</ele>
        <time>2020-07-21T14:58:30Z</time>
      </trkpt>
      <trkpt lat="45.42995" lon="5.90476">
        <ele>1838.9940267924</ele>
        <time>2020-07-21T14:58:37Z</time>
      </trkpt>
      <trkpt lat="45.42987" lon="5.90479">
        <ele>1840.9934876706</ele>
        <time>2020-07-21T14:58:47Z</time>
      </trkpt>
      <trkpt lat="45.42979" lon="5.90475">
        <ele>1841.9931815128</ele>
        <time>2020-07-21T14:59:10Z</time>
      </trkpt>
      <trkpt lat="45.42972" lon="5.90474">
        <ele>1842.992779487</ele>
        <time>2020-07-21T14:59:21Z</time>
      </trkpt>
      <trkpt lat="45.42963" lon="5.90477">
        <ele>1843.9922365791</ele>
        <time>2020-07-21T14:59:30Z</time>
      </trkpt>
      <trkpt lat="45.42955" lon="5.90476">
        <ele>1844.9917849875</ele>
        <time>2020-07-21T14:59:42Z</time>
      </trkpt>
      <trkpt lat="45.42947" lon="5.90482">
        <ele>1844.9912034018</ele>
        <time>2020-07-21T14:59:50Z</time>
      </trkpt>
      <trkpt lat="45.42946" lon="5.90494">
        <ele>1844.9907683296</ele>
        <time>2020-07-21T14:59:59Z</time>
      </trkpt>
      <trkpt lat="45.42944" lon="5.90507">
        <ele>1843.9903099801</ele>
        <time>2020-07-21T15:00:09Z</time>
      </trkpt>
      <trkpt lat="45.42936" lon="5.90513">
        <ele>1842.9897128982</ele>
        <time>2020-07-21T15:00:20Z</time>
      </trkpt>
      <trkpt lat="45.42931" lon="5.9052">
        <ele>1841.9892076932</ele>
        <time>2020-07-21T15:00:30Z</time>
      </trkpt>
      <trkpt lat="45.42926" lon="5.9053">
        <ele>1840.9886552348</ele>
        <time>2020-07-21T15:00:49Z</time>
      </trkpt>
      <trkpt lat="45.42924" lon="5.90542">
        <ele>1839.9882087028</ele>
        <time>2020-07-21T15:01:01Z</time>
      </trkpt>
      <trkpt lat="45.42921" lon="5.90554">
        <ele>1838.9877165585</ele>
        <time>2020-07-21T15:01:18Z</time>
      </trkpt>
      <trkpt lat="45.42915" lon="5.90561">
        <ele>1837.9871719699</ele>
        <time>2020-07-21T15:01:26Z</time>
      </trkpt>
      <trkpt lat="45.42913" lon="5.90571">
        <ele>1836.986730312</ele>
        <time>2020-07-21T15:01:34Z</time>
      </trkpt>
      <trkpt lat="45.42911" lon="5.90584">
        <ele>1836.9862962389</ele>
        <time>2020-07-21T15:01:42Z</time>
      </trkpt>
      <trkpt lat="45.42917" lon="5.90593">
        <ele>1835.9863600692</ele>
        <time>2020-07-21T15:01:52Z</time>
      </trkpt>
      <trkpt lat="45.42925" lon="5.90598">
        <ele>1834.9866399978</ele>
        <time>2020-07-21T15:02:03Z</time>
      </trkpt>
      <trkpt lat="45.42933" lon="5.90603">
        <ele>1832.9869621499</ele>
        <time>2020-07-21T15:02:16Z</time>
      </trkpt>
      <trkpt lat="45.42939" lon="5.90612">
        <ele>1830.9870068714</ele>
        <time>2020-07-21T15:02:26Z</time>
      </trkpt>
      <trkpt lat="45.42942" lon="5.90622">
        <ele>1826.9869192797</ele>
        <time>2020-07-21T15:02:38Z</time>
      </trkpt>
      <trkpt lat="45.42942" lon="5.90635">
        <ele>1824.9865473658</ele>
        <time>2020-07-21T15:02:50Z</time>
      </trkpt>
      <trkpt lat="45.42938" lon="5.90642">
        <ele>1823.98609729</ele>
        <time>2020-07-21T15:02:55Z</time>
      </trkpt>
      <trkpt lat="45.42931" lon="5.90649">
        <ele>1823.9855440669</ele>
        <time>2020-07-21T15:03:01Z</time>
      </trkpt>
      <trkpt lat="45.42925" lon="5.90657">
        <ele>1821.9849757384</ele>
        <time>2020-07-21T15:03:11Z</time>
      </trkpt>
      <trkpt lat="45.4292" lon="5.90666">
        <ele>1818.9844092702</ele>
        <time>2020-07-21T15:03:19Z</time>
      </trkpt>
      <trkpt lat="45.42914" lon="5.90675">
        <ele>1817.9838463136</ele>
        <time>2020-07-21T15:03:27Z</time>
      </trkpt>
      <trkpt lat="45.42911" lon="5.90687">
        <ele>1814.9833345567</ele>
        <time>2020-07-21T15:03:39Z</time>
      </trkpt>
      <trkpt lat="45.42905" lon="5.90696">
        <ele>1813.9827288044</ele>
        <time>2020-07-21T15:04:03Z</time>
      </trkpt>
      <trkpt lat="45.42899" lon="5.90704">
        <ele>1810.9821468097</ele>
        <time>2020-07-21T15:04:14Z</time>
      </trkpt>
      <trkpt lat="45.42893" lon="5.90714">
        <ele>1808.9815614442</ele>
        <time>2020-07-21T15:04:23Z</time>
      </trkpt>
      <trkpt lat="45.42893" lon="5.90725">
        <ele>1807.9812552222</ele>
        <time>2020-07-21T15:04:31Z</time>
      </trkpt>
      <trkpt lat="45.42895" lon="5.90738">
        <ele>1805.98100046</ele>
        <time>2020-07-21T15:04:43Z</time>
      </trkpt>
      <trkpt lat="45.42899" lon="5.90748">
        <ele>1802.9809210011</ele>
        <time>2020-07-21T15:04:55Z</time>
      </trkpt>
      <trkpt lat="45.42903" lon="5.90759">
        <ele>1801.9807971216</ele>
        <time>2020-07-21T15:05:04Z</time>
      </trkpt>
      <trkpt lat="45.42911" lon="5.90757">
        <ele>1800.9813356556</ele>
        <time>2020-07-21T15:05:14Z</time>
      </trkpt>
      <trkpt lat="45.42919" lon="5.90763">
        <ele>1797.9816065941</ele>
        <time>2020-07-21T15:05:40Z</time>
      </trkpt>
      <trkpt lat="45.42917" lon="5.90775">
        <ele>1793.981113242</ele>
        <time>2020-07-21T15:06:01Z</time>
      </trkpt>
      <trkpt lat="45.42918" lon="5.90787">
        <ele>1791.9808171024</ele>
        <time>2020-07-21T15:06:14Z</time>
      </trkpt>
      <trkpt lat="45.42914" lon="5.90797">
        <ele>1788.9803198011</ele>
        <time>2020-07-21T15:06:25Z</time>
      </trkpt>
      <trkpt lat="45.42911" lon="5.90808">
        <ele>1787.9798507831</ele>
        <time>2020-07-21T15:06:32Z</time>
      </trkpt>
      <trkpt lat="45.42914" lon="5.90819">
        <ele>1784.9797313505</ele>
        <time>2020-07-21T15:06:48Z</time>
      </trkpt>
      <trkpt lat="45.42916" lon="5.9083">
        <ele>1783.9794747287</ele>
        <time>2020-07-21T15:07:04Z</time>
      </trkpt>
      <trkpt lat="45.4292" lon="5.9084">
        <ele>1782.9794345837</ele>
        <time>2020-07-21T15:07:12Z</time>
      </trkpt>
      <trkpt lat="45.42926" lon="5.90849">
        <ele>1780.9794815977</ele>
        <time>2020-07-21T15:07:20Z</time>
      </trkpt>
      <trkpt lat="45.4293" lon="5.9086">
        <ele>1784.9794175382</ele>
        <time>2020-07-21T15:07:30Z</time>
      </trkpt>
      <trkpt lat="45.42936" lon="5.9087">
        <ele>1784.9794209741</ele>
        <time>2020-07-21T15:07:38Z</time>
      </trkpt>
      <trkpt lat="45.42941" lon="5.90878">
        <ele>1782.979501007</ele>
        <time>2020-07-21T15:07:48Z</time>
      </trkpt>
      <trkpt lat="45.42947" lon="5.90887">
        <ele>1781.9795449953</ele>
        <time>2020-07-21T15:07:56Z</time>
      </trkpt>
      <trkpt lat="45.42951" lon="5.90899">
        <ele>1781.9794285855</ele>
        <time>2020-07-21T15:08:02Z</time>
      </trkpt>
      <trkpt lat="45.42955" lon="5.90909">
        <ele>1778.9793546118</ele>
        <time>2020-07-21T15:08:08Z</time>
      </trkpt>
      <trkpt lat="45.42958" lon="5.90921">
        <ele>1775.9791852502</ele>
        <time>2020-07-21T15:08:15Z</time>
      </trkpt>
      <trkpt lat="45.42963" lon="5.9093">
        <ele>1775.979174796</ele>
        <time>2020-07-21T15:08:20Z</time>
      </trkpt>
      <trkpt lat="45.42967" lon="5.90939">
        <ele>1775.9791762606</ele>
        <time>2020-07-21T15:08:29Z</time>
      </trkpt>
      <trkpt lat="45.42973" lon="5.90948">
        <ele>1775.9792389295</ele>
        <time>2020-07-21T15:08:35Z</time>
      </trkpt>
      <trkpt lat="45.42977" lon="5.9096">
        <ele>1772.9790832909</ele>
        <time>2020-07-21T15:08:45Z</time>
      </trkpt>
      <trkpt lat="45.42982" lon="5.90971">
        <ele>1772.9790429024</ele>
        <time>2020-07-21T15:08:52Z</time>
      </trkpt>
      <trkpt lat="45.42985" lon="5.90981">
        <ele>1772.9789342531</ele>
        <time>2020-07-21T15:08:57Z</time>
      </trkpt>
      <trkpt lat="45.42985" lon="5.90994">
        <ele>1773.978538372</ele>
        <time>2020-07-21T15:09:03Z</time>
      </trkpt>
      <trkpt lat="45.42988" lon="5.91006">
        <ele>1770.9783628261</ele>
        <time>2020-07-21T15:09:08Z</time>
      </trkpt>
      <trkpt lat="45.42982" lon="5.91012">
        <ele>1767.9778833401</ele>
        <time>2020-07-21T15:09:14Z</time>
      </trkpt>
      <trkpt lat="45.42981" lon="5.91024">
        <ele>1764.9774744911</ele>
        <time>2020-07-21T15:09:23Z</time>
      </trkpt>
      <trkpt lat="45.42984" lon="5.91036">
        <ele>1764.9773215173</ele>
        <time>2020-07-21T15:09:31Z</time>
      </trkpt>
      <trkpt lat="45.42986" lon="5.91048">
        <ele>1763.9770711559</ele>
        <time>2020-07-21T15:09:40Z</time>
      </trkpt>
      <trkpt lat="45.42991" lon="5.91058">
        <ele>1761.9770313164</ele>
        <time>2020-07-21T15:09:51Z</time>
      </trkpt>
      <trkpt lat="45.42996" lon="5.91067">
        <ele>1758.9770771194</ele>
        <time>2020-07-21T15:10:02Z</time>
      </trkpt>
      <trkpt lat="45.43001" lon="5.91076">
        <ele>1756.9770610274</ele>
        <time>2020-07-21T15:10:11Z</time>
      </trkpt>
      <trkpt lat="45.43006" lon="5.91086">
        <ele>1756.9770569222</ele>
        <time>2020-07-21T15:10:18Z</time>
      </trkpt>
      <trkpt lat="45.4301" lon="5.91096">
        <ele>1754.9769811302</ele>
        <time>2020-07-21T15:10:26Z</time>
      </trkpt>
      <trkpt lat="45.43015" lon="5.91104">
        <ele>1753.9770354222</ele>
        <time>2020-07-21T15:10:33Z</time>
      </trkpt>
      <trkpt lat="45.43016" lon="5.91115">
        <ele>1749.9767484138</ele>
        <time>2020-07-21T15:10:41Z</time>
      </trkpt>
      <trkpt lat="45.43021" lon="5.91123">
        <ele>1749.976797735</ele>
        <time>2020-07-21T15:10:48Z</time>
      </trkpt>
      <trkpt lat="45.43024" lon="5.91134">
        <ele>1749.9766749149</ele>
        <time>2020-07-21T15:10:59Z</time>
      </trkpt>
      <trkpt lat="45.43032" lon="5.91136">
        <ele>1749.9770114413</ele>
        <time>2020-07-21T15:11:10Z</time>
      </trkpt>
      <trkpt lat="45.43038" lon="5.91144">
        <ele>1748.9771421803</ele>
        <time>2020-07-21T15:11:18Z</time>
      </trkpt>
      <trkpt lat="45.43045" lon="5.91151">
        <ele>1745.9772846884</ele>
        <time>2020-07-21T15:11:27Z</time>
      </trkpt>
      <trkpt lat="45.43048" lon="5.91162">
        <ele>1743.9771357352</ele>
        <time>2020-07-21T15:11:36Z</time>
      </trkpt>
      <trkpt lat="45.43054" lon="5.91172">
        <ele>1742.9771414339</ele>
        <time>2020-07-21T15:11:45Z</time>
      </trkpt>
      <trkpt lat="45.43057" lon="5.91184">
        <ele>1740.9770029677</ele>
        <time>2020-07-21T15:11:58Z</time>
      </trkpt>
      <trkpt lat="45.43062" lon="5.91193">
        <ele>1738.9769952352</ele>
        <time>2020-07-21T15:12:06Z</time>
      </trkpt>
      <trkpt lat="45.43065" lon="5.91205">
        <ele>1739.9767910262</ele>
        <time>2020-07-21T15:12:16Z</time>
      </trkpt>
      <trkpt lat="45.43069" lon="5.91217">
        <ele>1738.9766671848</ele>
        <time>2020-07-21T15:12:35Z</time>
      </trkpt>
      <trkpt lat="45.43075" lon="5.91225">
        <ele>1737.9767572982</ele>
        <time>2020-07-21T15:12:55Z</time>
      </trkpt>
      <trkpt lat="45.43078" lon="5.91237">
        <ele>1736.9766060483</ele>
        <time>2020-07-21T15:13:05Z</time>
      </trkpt>
      <trkpt lat="45.43084" lon="5.91246">
        <ele>1734.976634841</ele>
        <time>2020-07-21T15:13:16Z</time>
      </trkpt>
      <trkpt lat="45.4309" lon="5.91251">
        <ele>1734.9768293159</ele>
        <time>2020-07-21T15:13:22Z</time>
      </trkpt>
      <trkpt lat="45.43097" lon="5.91259">
        <ele>1734.9769515855</ele>
        <time>2020-07-21T15:13:32Z</time>
      </trkpt>
      <trkpt lat="45.43104" lon="5.91267">
        <ele>1734.9771316564</ele>
        <time>2020-07-21T15:13:41Z</time>
      </trkpt>
      <trkpt lat="45.43112" lon="5.91263">
        <ele>1741.9776879091</ele>
        <time>2020-07-21T15:13:46Z</time>
      </trkpt>
      <trkpt lat="45.43119" lon="5.91272">
        <ele>1735.977783128</ele>
        <time>2020-07-21T15:13:52Z</time>
      </trkpt>
      <trkpt lat="45.43124" lon="5.91281">
        <ele>1731.9777961527</ele>
        <time>2020-07-21T15:13:58Z</time>
      </trkpt>
      <trkpt lat="45.43126" lon="5.91289">
        <ele>1733.9776854937</ele>
        <time>2020-07-21T15:14:03Z</time>
      </trkpt>
      <trkpt lat="45.43129" lon="5.913">
        <ele>1728.9775131306</ele>
        <time>2020-07-21T15:14:11Z</time>
      </trkpt>
      <trkpt lat="45.43135" lon="5.91307">
        <ele>1730.9776422958</ele>
        <time>2020-07-21T15:14:22Z</time>
      </trkpt>
      <trkpt lat="45.43143" lon="5.91309">
        <ele>1730.9780144676</ele>
        <time>2020-07-21T15:14:28Z</time>
      </trkpt>
      <trkpt lat="45.4315" lon="5.91314">
        <ele>1732.9782368664</ele>
        <time>2020-07-21T15:14:37Z</time>
      </trkpt>
      <trkpt lat="45.43157" lon="5.91316">
        <ele>1732.9785353497</ele>
        <time>2020-07-21T15:14:46Z</time>
      </trkpt>
      <trkpt lat="45.43161" lon="5.91328">
        <ele>1724.9784280446</ele>
        <time>2020-07-21T15:14:50Z</time>
      </trkpt>
      <trkpt lat="45.43164" lon="5.91339">
        <ele>1720.978254254</ele>
        <time>2020-07-21T15:15:01Z</time>
      </trkpt>
      <trkpt lat="45.43171" lon="5.91346">
        <ele>1720.9784238619</ele>
        <time>2020-07-21T15:15:07Z</time>
      </trkpt>
      <trkpt lat="45.43177" lon="5.91354">
        <ele>1720.9785093157</ele>
        <time>2020-07-21T15:15:13Z</time>
      </trkpt>
      <trkpt lat="45.43182" lon="5.91363">
        <ele>1719.9785570176</ele>
        <time>2020-07-21T15:15:20Z</time>
      </trkpt>
      <trkpt lat="45.43187" lon="5.91372">
        <ele>1714.9785302456</ele>
        <time>2020-07-21T15:15:29Z</time>
      </trkpt>
      <trkpt lat="45.43194" lon="5.91379">
        <ele>1712.9787107908</ele>
        <time>2020-07-21T15:15:34Z</time>
      </trkpt>
      <trkpt lat="45.43201" lon="5.91387">
        <ele>1707.9788442227</ele>
        <time>2020-07-21T15:15:41Z</time>
      </trkpt>
      <trkpt lat="45.43205" lon="5.91397">
        <ele>1705.9787925683</ele>
        <time>2020-07-21T15:15:54Z</time>
      </trkpt>
      <trkpt lat="45.43212" lon="5.91406">
        <ele>1700.9788667015</ele>
        <time>2020-07-21T15:16:07Z</time>
      </trkpt>
      <trkpt lat="45.43216" lon="5.91416">
        <ele>1701.978799369</ele>
        <time>2020-07-21T15:16:14Z</time>
      </trkpt>
      <trkpt lat="45.43218" lon="5.91428">
        <ele>1693.9785871431</ele>
        <time>2020-07-21T15:16:28Z</time>
      </trkpt>
      <trkpt lat="45.43224" lon="5.91434">
        <ele>1689.978748043</ele>
        <time>2020-07-21T15:16:44Z</time>
      </trkpt>
      <trkpt lat="45.43233" lon="5.91438">
        <ele>1682.9790780054</ele>
        <time>2020-07-21T15:17:08Z</time>
      </trkpt>
      <trkpt lat="45.43238" lon="5.91448">
        <ele>1677.9790615452</ele>
        <time>2020-07-21T15:17:28Z</time>
      </trkpt>
      <trkpt lat="45.43245" lon="5.91455">
        <ele>1668.9792602799</ele>
        <time>2020-07-21T15:17:46Z</time>
      </trkpt>
      <trkpt lat="45.43251" lon="5.91464">
        <ele>1664.9793425921</ele>
        <time>2020-07-21T15:17:59Z</time>
      </trkpt>
      <trkpt lat="45.43256" lon="5.91474">
        <ele>1661.9792702721</ele>
        <time>2020-07-21T15:18:13Z</time>
      </trkpt>
      <trkpt lat="45.43264" lon="5.91477">
        <ele>1661.9796385315</ele>
        <time>2020-07-21T15:18:23Z</time>
      </trkpt>
      <trkpt lat="45.43271" lon="5.91486">
        <ele>1659.9796983055</ele>
        <time>2020-07-21T15:18:36Z</time>
      </trkpt>
      <trkpt lat="45.43279" lon="5.91488">
        <ele>1658.9800912893</ele>
        <time>2020-07-21T15:18:54Z</time>
      </trkpt>
      <trkpt lat="45.43288" lon="5.91488">
        <ele>1654.9805635137</ele>
        <time>2020-07-21T15:19:14Z</time>
      </trkpt>
      <trkpt lat="45.43296" lon="5.91493">
        <ele>1650.9808528684</ele>
        <time>2020-07-21T15:19:37Z</time>
      </trkpt>
      <trkpt lat="45.43305" lon="5.91493">
        <ele>1647.9813320431</ele>
        <time>2020-07-21T15:19:59Z</time>
      </trkpt>
      <trkpt lat="45.43313" lon="5.91495">
        <ele>1648.9816889309</ele>
        <time>2020-07-21T15:20:21Z</time>
      </trkpt>
      <trkpt lat="45.43321" lon="5.91497">
        <ele>1652.9821122445</ele>
        <time>2020-07-21T15:20:55Z</time>
      </trkpt>
      <trkpt lat="45.43328" lon="5.91503">
        <ele>1647.98227576</ele>
        <time>2020-07-21T15:21:11Z</time>
      </trkpt>
      <trkpt lat="45.43336" lon="5.91502">
        <ele>1641.98273174</ele>
        <time>2020-07-21T15:21:48Z</time>
      </trkpt>
      <trkpt lat="45.43344" lon="5.91499">
        <ele>1643.983266963</ele>
        <time>2020-07-21T15:22:03Z</time>
      </trkpt>
      <trkpt lat="45.43352" lon="5.91497">
        <ele>1642.9837403156</ele>
        <time>2020-07-21T15:22:23Z</time>
      </trkpt>
      <trkpt lat="45.4336" lon="5.91497">
        <ele>1636.9841777153</ele>
        <time>2020-07-21T15:22:40Z</time>
      </trkpt>
      <trkpt lat="45.43365" lon="5.91506">
        <ele>1632.984202397</ele>
        <time>2020-07-21T15:22:48Z</time>
      </trkpt>
      <trkpt lat="45.43372" lon="5.91513">
        <ele>1629.9843765055</ele>
        <time>2020-07-21T15:23:02Z</time>
      </trkpt>
      <trkpt lat="45.43378" lon="5.91521">
        <ele>1629.9844459004</ele>
        <time>2020-07-21T15:23:14Z</time>
      </trkpt>
      <trkpt lat="45.43387" lon="5.91524">
        <ele>1625.9848390648</ele>
        <time>2020-07-21T15:23:34Z</time>
      </trkpt>
      <trkpt lat="45.43394" lon="5.91531">
        <ele>1627.9850318763</ele>
        <time>2020-07-21T15:23:53Z</time>
      </trkpt>
      <trkpt lat="45.43403" lon="5.91529">
        <ele>1627.9855168947</ele>
        <time>2020-07-21T15:24:09Z</time>
      </trkpt>
      <trkpt lat="45.43411" lon="5.91532">
        <ele>1626.9858646462</ele>
        <time>2020-07-21T15:24:15Z</time>
      </trkpt>
      <trkpt lat="45.43419" lon="5.91531">
        <ele>1627.9863556613</ele>
        <time>2020-07-21T15:24:26Z</time>
      </trkpt>
      <trkpt lat="45.43427" lon="5.91536">
        <ele>1626.9866395706</ele>
        <time>2020-07-21T15:24:42Z</time>
      </trkpt>
      <trkpt lat="45.43436" lon="5.91538">
        <ele>1623.9870611719</ele>
        <time>2020-07-21T15:24:59Z</time>
      </trkpt>
      <trkpt lat="45.43445" lon="5.91537">
        <ele>1622.987522436</ele>
        <time>2020-07-21T15:25:20Z</time>
      </trkpt>
      <trkpt lat="45.43452" lon="5.91539">
        <ele>1620.9879056497</ele>
        <time>2020-07-21T15:25:37Z</time>
      </trkpt>
      <trkpt lat="45.4346" lon="5.91543">
        <ele>1616.9881513835</ele>
        <time>2020-07-21T15:25:50Z</time>
      </trkpt>
      <trkpt lat="45.43467" lon="5.91543">
        <ele>1621.9885795842</ele>
        <time>2020-07-21T15:26:06Z</time>
      </trkpt>
      <trkpt lat="45.43476" lon="5.91546">
        <ele>1624.9889595955</ele>
        <time>2020-07-21T15:26:17Z</time>
      </trkpt>
      <trkpt lat="45.43484" lon="5.91551">
        <ele>1620.9892496044</ele>
        <time>2020-07-21T15:26:28Z</time>
      </trkpt>
      <trkpt lat="45.43493" lon="5.9155">
        <ele>1622.9897341441</ele>
        <time>2020-07-21T15:26:42Z</time>
      </trkpt>
      <trkpt lat="45.43501" lon="5.91556">
        <ele>1621.9899909315</ele>
        <time>2020-07-21T15:27:02Z</time>
      </trkpt>
      <trkpt lat="45.43508" lon="5.91557">
        <ele>1621.9903575418</ele>
        <time>2020-07-21T15:27:09Z</time>
      </trkpt>
      <trkpt lat="45.43515" lon="5.91561">
        <ele>1618.9906024175</ele>
        <time>2020-07-21T15:27:18Z</time>
      </trkpt>
      <trkpt lat="45.43522" lon="5.91566">
        <ele>1616.9908133153</ele>
        <time>2020-07-21T15:27:22Z</time>
      </trkpt>
      <trkpt lat="45.43529" lon="5.91574">
        <ele>1611.9909588395</ele>
        <time>2020-07-21T15:27:32Z</time>
      </trkpt>
      <trkpt lat="45.43535" lon="5.91584">
        <ele>1613.9909624664</ele>
        <time>2020-07-21T15:27:41Z</time>
      </trkpt>
      <trkpt lat="45.4354" lon="5.91592">
        <ele>1611.9910408679</ele>
        <time>2020-07-21T15:27:49Z</time>
      </trkpt>
      <trkpt lat="45.43543" lon="5.91604">
        <ele>1606.9907993041</ele>
        <time>2020-07-21T15:28:07Z</time>
      </trkpt>
      <trkpt lat="45.43548" lon="5.91614">
        <ele>1603.9907917696</ele>
        <time>2020-07-21T15:28:26Z</time>
      </trkpt>
      <trkpt lat="45.43547" lon="5.91625">
        <ele>1596.9904031394</ele>
        <time>2020-07-21T15:28:42Z</time>
      </trkpt>
      <trkpt lat="45.4355" lon="5.91637">
        <ele>1595.9902083928</ele>
        <time>2020-07-21T15:28:54Z</time>
      </trkpt>
      <trkpt lat="45.43556" lon="5.91647">
        <ele>1593.9902230503</ele>
        <time>2020-07-21T15:29:08Z</time>
      </trkpt>
      <trkpt lat="45.43564" lon="5.9165">
        <ele>1599.9905725439</ele>
        <time>2020-07-21T15:29:20Z</time>
      </trkpt>
      <trkpt lat="45.43568" lon="5.91659">
        <ele>1584.9905353194</ele>
        <time>2020-07-21T15:29:58Z</time>
      </trkpt>
      <trkpt lat="45.43572" lon="5.91669">
        <ele>1584.9904388108</ele>
        <time>2020-07-21T15:30:12Z</time>
      </trkpt>
      <trkpt lat="45.43578" lon="5.91679">
        <ele>1586.9904589381</ele>
        <time>2020-07-21T15:30:25Z</time>
      </trkpt>
      <trkpt lat="45.4358" lon="5.9169">
        <ele>1585.9902199573</ele>
        <time>2020-07-21T15:30:33Z</time>
      </trkpt>
      <trkpt lat="45.43586" lon="5.91699">
        <ele>1588.9902862342</ele>
        <time>2020-07-21T15:30:40Z</time>
      </trkpt>
      <trkpt lat="45.43593" lon="5.91706">
        <ele>1592.990439843</ele>
        <time>2020-07-21T15:30:44Z</time>
      </trkpt>
      <trkpt lat="45.43601" lon="5.91707">
        <ele>1566.9908395979</ele>
        <time>2020-07-21T15:31:54Z</time>
      </trkpt>
      <trkpt lat="45.43606" lon="5.91699">
        <ele>1564.9913715782</ele>
        <time>2020-07-21T15:32:10Z</time>
      </trkpt>
      <trkpt lat="45.43614" lon="5.91698">
        <ele>1557.9918170678</ele>
        <time>2020-07-21T15:32:26Z</time>
      </trkpt>
      <trkpt lat="45.43623" lon="5.91702">
        <ele>1553.9921525609</ele>
        <time>2020-07-21T15:32:41Z</time>
      </trkpt>
      <trkpt lat="45.43631" lon="5.917">
        <ele>1552.992664574</ele>
        <time>2020-07-21T15:32:50Z</time>
      </trkpt>
      <trkpt lat="45.43639" lon="5.91705">
        <ele>1548.9929575629</ele>
        <time>2020-07-21T15:32:59Z</time>
      </trkpt>
      <trkpt lat="45.43647" lon="5.91711">
        <ele>1547.993167605</ele>
        <time>2020-07-21T15:33:10Z</time>
      </trkpt>
      <trkpt lat="45.43649" lon="5.91718">
        <ele>1549.9931022086</ele>
        <time>2020-07-21T15:33:17Z</time>
      </trkpt>
      <trkpt lat="45.43658" lon="5.91723">
        <ele>1547.9933933641</ele>
        <time>2020-07-21T15:33:24Z</time>
      </trkpt>
      <trkpt lat="45.43667" lon="5.91724">
        <ele>1547.9938270429</ele>
        <time>2020-07-21T15:33:34Z</time>
      </trkpt>
      <trkpt lat="45.43674" lon="5.9173">
        <ele>1547.9940728097</ele>
        <time>2020-07-21T15:33:45Z</time>
      </trkpt>
      <trkpt lat="45.43681" lon="5.91737">
        <ele>1544.994225728</ele>
        <time>2020-07-21T15:33:55Z</time>
      </trkpt>
      <trkpt lat="45.43689" lon="5.91736">
        <ele>1545.9946784086</ele>
        <time>2020-07-21T15:34:00Z</time>
      </trkpt>
      <trkpt lat="45.43697" lon="5.91732">
        <ele>1541.9952018411</ele>
        <time>2020-07-21T15:34:11Z</time>
      </trkpt>
      <trkpt lat="45.43705" lon="5.91729">
        <ele>1539.995752615</ele>
        <time>2020-07-21T15:34:21Z</time>
      </trkpt>
      <trkpt lat="45.43714" lon="5.91724">
        <ele>1542.9963747717</ele>
        <time>2020-07-21T15:34:25Z</time>
      </trkpt>
      <trkpt lat="45.43722" lon="5.91726">
        <ele>1544.9967281057</ele>
        <time>2020-07-21T15:34:33Z</time>
      </trkpt>
      <trkpt lat="45.43729" lon="5.9173">
        <ele>1545.9969607253</ele>
        <time>2020-07-21T15:34:39Z</time>
      </trkpt>
      <trkpt lat="45.43737" lon="5.91728">
        <ele>1542.997505425</ele>
        <time>2020-07-21T15:34:49Z</time>
      </trkpt>
      <trkpt lat="45.43745" lon="5.91728">
        <ele>1541.9979006307</ele>
        <time>2020-07-21T15:34:54Z</time>
      </trkpt>
      <trkpt lat="45.43753" lon="5.91725">
        <ele>1537.9984107733</ele>
        <time>2020-07-21T15:35:06Z</time>
      </trkpt>
      <trkpt lat="45.43761" lon="5.91722">
        <ele>1539.9989517159</ele>
        <time>2020-07-21T15:35:15Z</time>
      </trkpt>
      <trkpt lat="45.43769" lon="5.91727">
        <ele>1535.9991719639</ele>
        <time>2020-07-21T15:35:29Z</time>
      </trkpt>
      <trkpt lat="45.43776" lon="5.91731">
        <ele>1529.9994513628</ele>
        <time>2020-07-21T15:35:48Z</time>
      </trkpt>
      <trkpt lat="45.43784" lon="5.91734">
        <ele>1529.9998266858</ele>
        <time>2020-07-21T15:35:56Z</time>
      </trkpt>
      <trkpt lat="45.43793" lon="5.91735">
        <ele>1532.0002112991</ele>
        <time>2020-07-21T15:36:05Z</time>
      </trkpt>
      <trkpt lat="45.43801" lon="5.91734">
        <ele>1530.0006938142</ele>
        <time>2020-07-21T15:36:15Z</time>
      </trkpt>
      <trkpt lat="45.43808" lon="5.91738">
        <ele>1526.0009236006</ele>
        <time>2020-07-21T15:36:27Z</time>
      </trkpt>
      <trkpt lat="45.43815" lon="5.91745">
        <ele>1526.0011268669</ele>
        <time>2020-07-21T15:36:33Z</time>
      </trkpt>
      <trkpt lat="45.43823" lon="5.91741">
        <ele>1525.0016537733</ele>
        <time>2020-07-21T15:36:48Z</time>
      </trkpt>
      <trkpt lat="45.43831" lon="5.91746">
        <ele>1519.0019507909</ele>
        <time>2020-07-21T15:36:57Z</time>
      </trkpt>
      <trkpt lat="45.43835" lon="5.91757">
        <ele>1519.0018050253</ele>
        <time>2020-07-21T15:37:07Z</time>
      </trkpt>
      <trkpt lat="45.43844" lon="5.91757">
        <ele>1518.0022706988</ele>
        <time>2020-07-21T15:37:15Z</time>
      </trkpt>
      <trkpt lat="45.43852" lon="5.91758">
        <ele>1525.002680099</ele>
        <time>2020-07-21T15:37:25Z</time>
      </trkpt>
      <trkpt lat="45.4386" lon="5.91755">
        <ele>1526.0032174479</ele>
        <time>2020-07-21T15:37:29Z</time>
      </trkpt>
      <trkpt lat="45.43868" lon="5.9175">
        <ele>1521.0038003089</ele>
        <time>2020-07-21T15:37:37Z</time>
      </trkpt>
      <trkpt lat="45.43875" lon="5.91747">
        <ele>1521.0042469691</ele>
        <time>2020-07-21T15:37:46Z</time>
      </trkpt>
      <trkpt lat="45.43883" lon="5.91741">
        <ele>1521.0048392038</ele>
        <time>2020-07-21T15:37:52Z</time>
      </trkpt>
      <trkpt lat="45.43891" lon="5.91743">
        <ele>1520.0052059805</ele>
        <time>2020-07-21T15:37:58Z</time>
      </trkpt>
      <trkpt lat="45.43899" lon="5.91746">
        <ele>1520.0055717947</ele>
        <time>2020-07-21T15:38:05Z</time>
      </trkpt>
      <trkpt lat="45.43907" lon="5.9175">
        <ele>1518.0058689745</ele>
        <time>2020-07-21T15:38:12Z</time>
      </trkpt>
      <trkpt lat="45.43916" lon="5.91754">
        <ele>1517.0061909768</ele>
        <time>2020-07-21T15:38:21Z</time>
      </trkpt>
      <trkpt lat="45.43922" lon="5.91762">
        <ele>1516.0062838247</ele>
        <time>2020-07-21T15:38:35Z</time>
      </trkpt>
      <trkpt lat="45.43925" lon="5.91773">
        <ele>1516.0061030347</ele>
        <time>2020-07-21T15:38:52Z</time>
      </trkpt>
      <trkpt lat="45.43928" lon="5.91784">
        <ele>1513.005965947</ele>
        <time>2020-07-21T15:39:05Z</time>
      </trkpt>
      <trkpt lat="45.43935" lon="5.91792">
        <ele>1510.0060682159</ele>
        <time>2020-07-21T15:39:19Z</time>
      </trkpt>
      <trkpt lat="45.43938" lon="5.91803">
        <ele>1514.0059094931</ele>
        <time>2020-07-21T15:39:32Z</time>
      </trkpt>
      <trkpt lat="45.43946" lon="5.9181">
        <ele>1513.0060974853</ele>
        <time>2020-07-21T15:41:39Z</time>
      </trkpt>
      <trkpt lat="45.43952" lon="5.91818">
        <ele>1514.0061808016</ele>
        <time>2020-07-21T15:41:43Z</time>
      </trkpt>
      <trkpt lat="45.4396" lon="5.91826">
        <ele>1509.0063498185</ele>
        <time>2020-07-21T15:41:48Z</time>
      </trkpt>
      <trkpt lat="45.43966" lon="5.91833">
        <ele>1508.0064801229</ele>
        <time>2020-07-21T15:42:01Z</time>
      </trkpt>
      <trkpt lat="45.43969" lon="5.91844">
        <ele>1508.0062750859</ele>
        <time>2020-07-21T15:42:07Z</time>
      </trkpt>
      <trkpt lat="45.43975" lon="5.91851">
        <ele>1510.0064102219</ele>
        <time>2020-07-21T15:42:22Z</time>
      </trkpt>
      <trkpt lat="45.43979" lon="5.91862">
        <ele>1508.0062780527</ele>
        <time>2020-07-21T15:42:53Z</time>
      </trkpt>
      <trkpt lat="45.43981" lon="5.91874">
        <ele>1502.0060009736</ele>
        <time>2020-07-21T15:43:07Z</time>
      </trkpt>
      <trkpt lat="45.43981" lon="5.91887">
        <ele>1501.0056327086</ele>
        <time>2020-07-21T15:43:21Z</time>
      </trkpt>
      <trkpt lat="45.43981" lon="5.91899">
        <ele>1503.0052438742</ele>
        <time>2020-07-21T15:43:44Z</time>
      </trkpt>
      <trkpt lat="45.43981" lon="5.91911">
        <ele>1501.0048661157</ele>
        <time>2020-07-21T15:43:54Z</time>
      </trkpt>
      <trkpt lat="45.43977" lon="5.91922">
        <ele>1502.004365501</ele>
        <time>2020-07-21T15:44:02Z</time>
      </trkpt>
      <trkpt lat="45.43975" lon="5.91934">
        <ele>1503.0038690716</ele>
        <time>2020-07-21T15:44:10Z</time>
      </trkpt>
      <trkpt lat="45.43975" lon="5.91945">
        <ele>1499.0035116228</ele>
        <time>2020-07-21T15:44:17Z</time>
      </trkpt>
      <trkpt lat="45.43974" lon="5.91958">
        <ele>1496.0031160695</ele>
        <time>2020-07-21T15:44:25Z</time>
      </trkpt>
      <trkpt lat="45.43974" lon="5.91969">
        <ele>1496.0027576139</ele>
        <time>2020-07-21T15:44:31Z</time>
      </trkpt>
      <trkpt lat="45.43974" lon="5.91981">
        <ele>1495.0023961734</ele>
        <time>2020-07-21T15:44:39Z</time>
      </trkpt>
      <trkpt lat="45.43974" lon="5.91993">
        <ele>1495.0020341279</ele>
        <time>2020-07-21T15:44:50Z</time>
      </trkpt>
      <trkpt lat="45.43977" lon="5.92005">
        <ele>1495.0018248727</ele>
        <time>2020-07-21T15:45:01Z</time>
      </trkpt>
      <trkpt lat="45.4398" lon="5.92016">
        <ele>1495.0016824103</ele>
        <time>2020-07-21T15:45:09Z</time>
      </trkpt>
      <trkpt lat="45.43981" lon="5.92028">
        <ele>1494.0013639076</ele>
        <time>2020-07-21T15:45:18Z</time>
      </trkpt>
      <trkpt lat="45.43978" lon="5.9204">
        <ele>1494.0008330885</ele>
        <time>2020-07-21T15:45:27Z</time>
      </trkpt>
      <trkpt lat="45.43973" lon="5.9205">
        <ele>1496.0002730731</ele>
        <time>2020-07-21T15:45:33Z</time>
      </trkpt>
      <trkpt lat="45.43967" lon="5.92058">
        <ele>1493.9996680406</ele>
        <time>2020-07-21T15:45:42Z</time>
      </trkpt>
      <trkpt lat="45.43958" lon="5.92063">
        <ele>1496.9990828768</ele>
        <time>2020-07-21T15:45:52Z</time>
      </trkpt>
      <trkpt lat="45.43951" lon="5.92071">
        <ele>1495.9984810191</ele>
        <time>2020-07-21T15:46:03Z</time>
      </trkpt>
      <trkpt lat="45.43946" lon="5.9208">
        <ele>1496.9978969818</ele>
        <time>2020-07-21T15:46:26Z</time>
      </trkpt>
      <trkpt lat="45.43937" lon="5.92082">
        <ele>1494.9973790846</ele>
        <time>2020-07-21T15:46:54Z</time>
      </trkpt>
      <trkpt lat="45.43939" lon="5.92094">
        <ele>1492.9971070639</ele>
        <time>2020-07-21T15:47:08Z</time>
      </trkpt>
      <trkpt lat="45.43943" lon="5.92105">
        <ele>1492.9969778193</ele>
        <time>2020-07-21T15:47:16Z</time>
      </trkpt>
      <trkpt lat="45.43945" lon="5.92117">
        <ele>1491.996749615</ele>
        <time>2020-07-21T15:47:25Z</time>
      </trkpt>
      <trkpt lat="45.43952" lon="5.92125">
        <ele>1492.9968359827</ele>
        <time>2020-07-21T15:47:47Z</time>
      </trkpt>
      <trkpt lat="45.43957" lon="5.92135">
        <ele>1492.9968349295</ele>
        <time>2020-07-21T15:47:55Z</time>
      </trkpt>
      <trkpt lat="45.43965" lon="5.92141">
        <ele>1494.9970849114</ele>
        <time>2020-07-21T15:48:03Z</time>
      </trkpt>
      <trkpt lat="45.43974" lon="5.92143">
        <ele>1497.997457396</ele>
        <time>2020-07-21T15:48:13Z</time>
      </trkpt>
      <trkpt lat="45.43982" lon="5.92146">
        <ele>1498.9978044334</ele>
        <time>2020-07-21T15:48:19Z</time>
      </trkpt>
      <trkpt lat="45.43988" lon="5.92155">
        <ele>1497.9978493792</ele>
        <time>2020-07-21T15:48:27Z</time>
      </trkpt>
      <trkpt lat="45.43995" lon="5.9216">
        <ele>1496.9981035677</ele>
        <time>2020-07-21T15:48:35Z</time>
      </trkpt>
      <trkpt lat="45.44001" lon="5.92165">
        <ele>1496.9982677418</ele>
        <time>2020-07-21T15:48:41Z</time>
      </trkpt>
      <trkpt lat="45.44008" lon="5.92173">
        <ele>1496.9983511721</ele>
        <time>2020-07-21T15:48:49Z</time>
      </trkpt>
      <trkpt lat="45.44015" lon="5.92178">
        <ele>1497.9986067741</ele>
        <time>2020-07-21T15:48:57Z</time>
      </trkpt>
      <trkpt lat="45.44022" lon="5.92185">
        <ele>1497.9987276399</ele>
        <time>2020-07-21T15:49:07Z</time>
      </trkpt>
      <trkpt lat="45.44029" lon="5.92192">
        <ele>1498.99886045</ele>
        <time>2020-07-21T15:49:19Z</time>
      </trkpt>
      <trkpt lat="45.44036" lon="5.92196">
        <ele>1499.9991461603</ele>
        <time>2020-07-21T15:49:29Z</time>
      </trkpt>
      <trkpt lat="45.44044" lon="5.922">
        <ele>1501.9994551193</ele>
        <time>2020-07-21T15:49:40Z</time>
      </trkpt>
      <trkpt lat="45.44051" lon="5.92194">
        <ele>1504.9999985819</ele>
        <time>2020-07-21T15:49:58Z</time>
      </trkpt>
      <trkpt lat="45.4406" lon="5.92189">
        <ele>1508.0005729545</ele>
        <time>2020-07-21T15:50:14Z</time>
      </trkpt>
      <trkpt lat="45.44062" lon="5.92178">
        <ele>1511.0010646365</ele>
        <time>2020-07-21T15:51:01Z</time>
      </trkpt>
      <trkpt lat="45.44061" lon="5.92166">
        <ele>1513.0013863994</ele>
        <time>2020-07-21T15:51:13Z</time>
      </trkpt>
      <trkpt lat="45.44063" lon="5.92153">
        <ele>1514.0018447684</ele>
        <time>2020-07-21T15:51:25Z</time>
      </trkpt>
      <trkpt lat="45.44068" lon="5.92143">
        <ele>1515.0024159777</ele>
        <time>2020-07-21T15:51:36Z</time>
      </trkpt>
      <trkpt lat="45.44073" lon="5.92132">
        <ele>1516.0029905754</ele>
        <time>2020-07-21T15:51:46Z</time>
      </trkpt>
      <trkpt lat="45.44077" lon="5.92122">
        <ele>1519.0035103214</ele>
        <time>2020-07-21T15:51:55Z</time>
      </trkpt>
      <trkpt lat="45.44081" lon="5.92111">
        <ele>1521.0040543566</ele>
        <time>2020-07-21T15:52:05Z</time>
      </trkpt>
      <trkpt lat="45.44085" lon="5.92101">
        <ele>1522.0045808772</ele>
        <time>2020-07-21T15:52:12Z</time>
      </trkpt>
      <trkpt lat="45.44088" lon="5.9209">
        <ele>1523.0051091828</ele>
        <time>2020-07-21T15:52:21Z</time>
      </trkpt>
      <trkpt lat="45.44092" lon="5.92079">
        <ele>1523.0056300345</ele>
        <time>2020-07-21T15:52:29Z</time>
      </trkpt>
      <trkpt lat="45.44097" lon="5.9207">
        <ele>1523.0061978756</ele>
        <time>2020-07-21T15:52:36Z</time>
      </trkpt>
      <trkpt lat="45.44103" lon="5.9206">
        <ele>1524.006780651</ele>
        <time>2020-07-21T15:52:43Z</time>
      </trkpt>
      <trkpt lat="45.44108" lon="5.92051">
        <ele>1524.0073320093</ele>
        <time>2020-07-21T15:52:50Z</time>
      </trkpt>
      <trkpt lat="45.44112" lon="5.92041">
        <ele>1523.007855802</ele>
        <time>2020-07-21T15:52:56Z</time>
      </trkpt>
      <trkpt lat="45.44117" lon="5.92033">
        <ele>1524.0083988806</ele>
        <time>2020-07-21T15:53:02Z</time>
      </trkpt>
      <trkpt lat="45.44123" lon="5.92024">
        <ele>1525.0089476684</ele>
        <time>2020-07-21T15:53:09Z</time>
      </trkpt>
      <trkpt lat="45.44129" lon="5.92016">
        <ele>1526.0095309424</ele>
        <time>2020-07-21T15:53:15Z</time>
      </trkpt>
      <trkpt lat="45.44135" lon="5.92007">
        <ele>1527.0101059611</ele>
        <time>2020-07-21T15:53:22Z</time>
      </trkpt>
      <trkpt lat="45.44138" lon="5.91997">
        <ele>1526.0105659954</ele>
        <time>2020-07-21T15:53:29Z</time>
      </trkpt>
      <trkpt lat="45.44143" lon="5.91987">
        <ele>1528.0111618464</ele>
        <time>2020-07-21T15:53:37Z</time>
      </trkpt>
      <trkpt lat="45.44146" lon="5.91976">
        <ele>1528.0116432632</ele>
        <time>2020-07-21T15:53:45Z</time>
      </trkpt>
      <trkpt lat="45.4415" lon="5.91966">
        <ele>1529.0121609065</ele>
        <time>2020-07-21T15:53:52Z</time>
      </trkpt>
      <trkpt lat="45.44152" lon="5.91955">
        <ele>1530.0126084262</ele>
        <time>2020-07-21T15:53:59Z</time>
      </trkpt>
      <trkpt lat="45.44155" lon="5.91944">
        <ele>1530.0130671536</ele>
        <time>2020-07-21T15:54:06Z</time>
      </trkpt>
      <trkpt lat="45.4416" lon="5.91935">
        <ele>1531.0136302521</ele>
        <time>2020-07-21T15:54:13Z</time>
      </trkpt>
      <trkpt lat="45.44161" lon="5.91923">
        <ele>1532.0140690469</ele>
        <time>2020-07-21T15:54:21Z</time>
      </trkpt>
      <trkpt lat="45.44166" lon="5.91913">
        <ele>1533.0146525025</ele>
        <time>2020-07-21T15:54:30Z</time>
      </trkpt>
      <trkpt lat="45.44171" lon="5.91903">
        <ele>1533.0151880533</ele>
        <time>2020-07-21T15:54:38Z</time>
      </trkpt>
      <trkpt lat="45.44176" lon="5.91892">
        <ele>1535.0157720697</ele>
        <time>2020-07-21T15:54:48Z</time>
      </trkpt>
      <trkpt lat="45.44181" lon="5.91882">
        <ele>1535.0163625612</ele>
        <time>2020-07-21T15:55:06Z</time>
      </trkpt>
      <trkpt lat="45.44182" lon="5.9187">
        <ele>1535.0168026743</ele>
        <time>2020-07-21T15:56:05Z</time>
      </trkpt>
      <trkpt lat="45.44191" lon="5.9187">
        <ele>1534.0172742543</ele>
        <time>2020-07-21T15:56:14Z</time>
      </trkpt>
      <trkpt lat="45.44198" lon="5.91863">
        <ele>1531.0178365275</ele>
        <time>2020-07-21T15:56:29Z</time>
      </trkpt>
      <trkpt lat="45.442" lon="5.91851">
        <ele>1530.0182997861</ele>
        <time>2020-07-21T15:56:45Z</time>
      </trkpt>
      <trkpt lat="45.44202" lon="5.9184">
        <ele>1525.0187674436</ele>
        <time>2020-07-21T15:56:55Z</time>
      </trkpt>
      <trkpt lat="45.44211" lon="5.91839">
        <ele>1522.0192695813</ele>
        <time>2020-07-21T15:57:08Z</time>
      </trkpt>
      <trkpt lat="45.44219" lon="5.91835">
        <ele>1517.0198327458</ele>
        <time>2020-07-21T15:57:23Z</time>
      </trkpt>
      <trkpt lat="45.44221" lon="5.91823">
        <ele>1513.0203178365</ele>
        <time>2020-07-21T15:57:44Z</time>
      </trkpt>
      <trkpt lat="45.44224" lon="5.91813">
        <ele>1506.0207589304</ele>
        <time>2020-07-21T15:58:00Z</time>
      </trkpt>
      <trkpt lat="45.44231" lon="5.91807">
        <ele>1500.0213503656</ele>
        <time>2020-07-21T15:58:50Z</time>
      </trkpt>
      <trkpt lat="45.44233" lon="5.91796">
        <ele>1500.0217725961</ele>
        <time>2020-07-21T15:59:05Z</time>
      </trkpt>
      <trkpt lat="45.44233" lon="5.91783">
        <ele>1499.0221524878</ele>
        <time>2020-07-21T15:59:17Z</time>
      </trkpt>
      <trkpt lat="45.44232" lon="5.91771">
        <ele>1495.0224745989</ele>
        <time>2020-07-21T15:59:28Z</time>
      </trkpt>
      <trkpt lat="45.44239" lon="5.91776">
        <ele>1488.0227060774</ele>
        <time>2020-07-21T15:59:49Z</time>
      </trkpt>
      <trkpt lat="45.44244" lon="5.91784">
        <ele>1485.0227360772</ele>
        <time>2020-07-21T16:00:06Z</time>
      </trkpt>
      <trkpt lat="45.44251" lon="5.9179">
        <ele>1488.0229337887</ele>
        <time>2020-07-21T16:00:17Z</time>
      </trkpt>
      <trkpt lat="45.44256" lon="5.918">
        <ele>1488.0228752788</ele>
        <time>2020-07-21T16:00:35Z</time>
      </trkpt>
      <trkpt lat="45.4426" lon="5.9181">
        <ele>1489.0227983938</ele>
        <time>2020-07-21T16:00:54Z</time>
      </trkpt>
      <trkpt lat="45.44267" lon="5.91819">
        <ele>1486.022866046</ele>
        <time>2020-07-21T16:01:06Z</time>
      </trkpt>
      <trkpt lat="45.44275" lon="5.91823">
        <ele>1483.023150597</ele>
        <time>2020-07-21T16:01:18Z</time>
      </trkpt>
      <trkpt lat="45.4428" lon="5.91833">
        <ele>1477.0231049242</ele>
        <time>2020-07-21T16:01:33Z</time>
      </trkpt>
      <trkpt lat="45.44284" lon="5.91844">
        <ele>1480.0230360314</ele>
        <time>2020-07-21T16:01:49Z</time>
      </trkpt>
      <trkpt lat="45.44291" lon="5.91849">
        <ele>1472.0232145396</ele>
        <time>2020-07-21T16:02:03Z</time>
      </trkpt>
      <trkpt lat="45.44299" lon="5.91847">
        <ele>1465.0237195046</ele>
        <time>2020-07-21T16:02:09Z</time>
      </trkpt>
      <trkpt lat="45.44307" lon="5.91842">
        <ele>1465.0242763311</ele>
        <time>2020-07-21T16:02:17Z</time>
      </trkpt>
      <trkpt lat="45.44315" lon="5.91838">
        <ele>1461.0248103715</ele>
        <time>2020-07-21T16:02:41Z</time>
      </trkpt>
      <trkpt lat="45.44319" lon="5.91828">
        <ele>1457.0253422778</ele>
        <time>2020-07-21T16:02:55Z</time>
      </trkpt>
      <trkpt lat="45.44324" lon="5.91819">
        <ele>1458.0259227749</ele>
        <time>2020-07-21T16:03:07Z</time>
      </trkpt>
      <trkpt lat="45.44326" lon="5.91807">
        <ele>1453.0263824176</ele>
        <time>2020-07-21T16:03:18Z</time>
      </trkpt>
      <trkpt lat="45.44332" lon="5.91798">
        <ele>1450.0269636622</ele>
        <time>2020-07-21T16:03:27Z</time>
      </trkpt>
      <trkpt lat="45.44334" lon="5.91787">
        <ele>1451.0274378505</ele>
        <time>2020-07-21T16:03:37Z</time>
      </trkpt>
      <trkpt lat="45.44338" lon="5.91776">
        <ele>1441.0280022168</ele>
        <time>2020-07-21T16:03:50Z</time>
      </trkpt>
      <trkpt lat="45.44343" lon="5.91765">
        <ele>1436.0285704144</ele>
        <time>2020-07-21T16:04:04Z</time>
      </trkpt>
      <trkpt lat="45.44334" lon="5.91763">
        <ele>1431.0281489414</ele>
        <time>2020-07-21T16:04:18Z</time>
      </trkpt>
      <trkpt lat="45.44337" lon="5.91752">
        <ele>1421.0286899991</ele>
        <time>2020-07-21T16:04:31Z</time>
      </trkpt>
      <trkpt lat="45.44329" lon="5.91749">
        <ele>1415.028309476</ele>
        <time>2020-07-21T16:04:43Z</time>
      </trkpt>
      <trkpt lat="45.44322" lon="5.91742">
        <ele>1414.0281906012</ele>
        <time>2020-07-21T16:05:11Z</time>
      </trkpt>
      <trkpt lat="45.44315" lon="5.91748">
        <ele>1410.027623152</ele>
        <time>2020-07-21T16:05:21Z</time>
      </trkpt>
      <trkpt lat="45.44312" lon="5.91737">
        <ele>1413.0277985095</ele>
        <time>2020-07-21T16:05:55Z</time>
      </trkpt>
      <trkpt lat="45.44313" lon="5.91725">
        <ele>1410.0282153774</ele>
        <time>2020-07-21T16:06:04Z</time>
      </trkpt>
      <trkpt lat="45.44318" lon="5.91715">
        <ele>1407.0287892448</ele>
        <time>2020-07-21T16:06:11Z</time>
      </trkpt>
      <trkpt lat="45.44322" lon="5.91704">
        <ele>1400.0293223574</ele>
        <time>2020-07-21T16:06:22Z</time>
      </trkpt>
      <trkpt lat="45.44329" lon="5.91697">
        <ele>1395.0299216899</ele>
        <time>2020-07-21T16:06:33Z</time>
      </trkpt>
      <trkpt lat="45.44322" lon="5.91689">
        <ele>1390.0298189862</ele>
        <time>2020-07-21T16:06:56Z</time>
      </trkpt>
      <trkpt lat="45.44313" lon="5.91688">
        <ele>1383.0294029933</ele>
        <time>2020-07-21T16:07:09Z</time>
      </trkpt>
      <trkpt lat="45.44305" lon="5.9169">
        <ele>1382.0288708343</ele>
        <time>2020-07-21T16:07:19Z</time>
      </trkpt>
      <trkpt lat="45.44296" lon="5.91689">
        <ele>1381.0284515117</ele>
        <time>2020-07-21T16:07:38Z</time>
      </trkpt>
      <trkpt lat="45.44294" lon="5.91677">
        <ele>1375.0287082236</ele>
        <time>2020-07-21T16:08:07Z</time>
      </trkpt>
      <trkpt lat="45.44296" lon="5.91665">
        <ele>1372.029159538</ele>
        <time>2020-07-21T16:08:16Z</time>
      </trkpt>
      <trkpt lat="45.44301" lon="5.91655">
        <ele>1365.0297585797</ele>
        <time>2020-07-21T16:08:29Z</time>
      </trkpt>
      <trkpt lat="45.44309" lon="5.9165">
        <ele>1364.030344125</ele>
        <time>2020-07-21T16:08:37Z</time>
      </trkpt>
      <trkpt lat="45.44306" lon="5.91638">
        <ele>1362.0305501275</ele>
        <time>2020-07-21T16:09:07Z</time>
      </trkpt>
      <trkpt lat="45.44298" lon="5.91634">
        <ele>1358.0302146776</ele>
        <time>2020-07-21T16:09:19Z</time>
      </trkpt>
      <trkpt lat="45.4429" lon="5.9163">
        <ele>1355.02993344</ele>
        <time>2020-07-21T16:09:28Z</time>
      </trkpt>
      <trkpt lat="45.44288" lon="5.91618">
        <ele>1351.0301598044</ele>
        <time>2020-07-21T16:09:48Z</time>
      </trkpt>
      <trkpt lat="45.4428" lon="5.91622">
        <ele>1349.0296438654</ele>
        <time>2020-07-21T16:09:59Z</time>
      </trkpt>
      <trkpt lat="45.44276" lon="5.91633">
        <ele>1351.0290703587</ele>
        <time>2020-07-21T16:10:07Z</time>
      </trkpt>
      <trkpt lat="45.44267" lon="5.9163">
        <ele>1352.0287101176</ele>
        <time>2020-07-21T16:10:13Z</time>
      </trkpt>
      <trkpt lat="45.44259" lon="5.91629">
        <ele>1356.0282987992</ele>
        <time>2020-07-21T16:10:19Z</time>
      </trkpt>
      <trkpt lat="45.4425" lon="5.91631">
        <ele>1356.0277601387</ele>
        <time>2020-07-21T16:10:26Z</time>
      </trkpt>
      <trkpt lat="45.44243" lon="5.91633">
        <ele>1353.0272973155</ele>
        <time>2020-07-21T16:10:33Z</time>
      </trkpt>
      <trkpt lat="45.44234" lon="5.91632">
        <ele>1352.0269091556</ele>
        <time>2020-07-21T16:10:42Z</time>
      </trkpt>
      <trkpt lat="45.44238" lon="5.9162">
        <ele>1357.0274575149</ele>
        <time>2020-07-21T16:11:05Z</time>
      </trkpt>
      <trkpt lat="45.44238" lon="5.9161">
        <ele>1357.0277970156</ele>
        <time>2020-07-21T16:11:10Z</time>
      </trkpt>
      <trkpt lat="45.44244" lon="5.91601">
        <ele>1355.0283375692</ele>
        <time>2020-07-21T16:11:15Z</time>
      </trkpt>
      <trkpt lat="45.4425" lon="5.91593">
        <ele>1347.028914558</ele>
        <time>2020-07-21T16:11:24Z</time>
      </trkpt>
      <trkpt lat="45.44257" lon="5.91585">
        <ele>1346.0295309928</ele>
        <time>2020-07-21T16:11:33Z</time>
      </trkpt>
      <trkpt lat="45.44261" lon="5.91574">
        <ele>1336.0301017726</ele>
        <time>2020-07-21T16:11:41Z</time>
      </trkpt>
      <trkpt lat="45.44266" lon="5.91565">
        <ele>1335.0306444935</ele>
        <time>2020-07-21T16:11:47Z</time>
      </trkpt>
      <trkpt lat="45.44273" lon="5.91558">
        <ele>1333.0312370481</ele>
        <time>2020-07-21T16:11:53Z</time>
      </trkpt>
      <trkpt lat="45.44279" lon="5.91549">
        <ele>1326.0318302492</ele>
        <time>2020-07-21T16:12:02Z</time>
      </trkpt>
      <trkpt lat="45.44282" lon="5.91537">
        <ele>1313.0323675678</ele>
        <time>2020-07-21T16:12:26Z</time>
      </trkpt>
      <trkpt lat="45.44287" lon="5.91528">
        <ele>1306.0329013025</ele>
        <time>2020-07-21T16:12:41Z</time>
      </trkpt>
      <trkpt lat="45.44292" lon="5.91519">
        <ele>1304.0334743318</ele>
        <time>2020-07-21T16:12:53Z</time>
      </trkpt>
      <trkpt lat="45.44296" lon="5.91508">
        <ele>1307.0339814814</ele>
        <time>2020-07-21T16:13:01Z</time>
      </trkpt>
      <trkpt lat="45.44302" lon="5.91502">
        <ele>1302.0345214449</ele>
        <time>2020-07-21T16:13:11Z</time>
      </trkpt>
      <trkpt lat="45.44308" lon="5.91496">
        <ele>1300.0350572741</ele>
        <time>2020-07-21T16:13:16Z</time>
      </trkpt>
      <trkpt lat="45.44311" lon="5.91485">
        <ele>1293.0355318092</ele>
        <time>2020-07-21T16:13:23Z</time>
      </trkpt>
      <trkpt lat="45.44317" lon="5.91475">
        <ele>1291.0361426534</ele>
        <time>2020-07-21T16:13:29Z</time>
      </trkpt>
      <trkpt lat="45.44323" lon="5.9147">
        <ele>1292.0366163904</ele>
        <time>2020-07-21T16:13:35Z</time>
      </trkpt>
      <trkpt lat="45.44324" lon="5.91458">
        <ele>1294.0370330143</ele>
        <time>2020-07-21T16:13:41Z</time>
      </trkpt>
      <trkpt lat="45.44328" lon="5.91449">
        <ele>1297.0375668112</ele>
        <time>2020-07-21T16:13:46Z</time>
      </trkpt>
      <trkpt lat="45.44333" lon="5.9144">
        <ele>1291.0381051598</ele>
        <time>2020-07-21T16:13:54Z</time>
      </trkpt>
      <trkpt lat="45.4433" lon="5.91429">
        <ele>1289.038268987</ele>
        <time>2020-07-21T16:14:02Z</time>
      </trkpt>
      <trkpt lat="45.44326" lon="5.91418">
        <ele>1289.038446025</ele>
        <time>2020-07-21T16:14:11Z</time>
      </trkpt>
      <trkpt lat="45.44321" lon="5.91409">
        <ele>1286.0384170544</ele>
        <time>2020-07-21T16:14:22Z</time>
      </trkpt>
      <trkpt lat="45.4432" lon="5.91397">
        <ele>1286.0387135521</ele>
        <time>2020-07-21T16:14:29Z</time>
      </trkpt>
      <trkpt lat="45.44323" lon="5.91386">
        <ele>1279.0392395709</ele>
        <time>2020-07-21T16:14:37Z</time>
      </trkpt>
      <trkpt lat="45.4433" lon="5.91379">
        <ele>1276.0398391018</ele>
        <time>2020-07-21T16:14:47Z</time>
      </trkpt>
      <trkpt lat="45.44336" lon="5.9137">
        <ele>1272.0404374572</ele>
        <time>2020-07-21T16:14:54Z</time>
      </trkpt>
      <trkpt lat="45.44337" lon="5.91357">
        <ele>1270.0408923974</ele>
        <time>2020-07-21T16:15:03Z</time>
      </trkpt>
      <trkpt lat="45.44343" lon="5.91349">
        <ele>1265.0414897095</ele>
        <time>2020-07-21T16:15:13Z</time>
      </trkpt>
      <trkpt lat="45.44353" lon="5.91347">
        <ele>1265.0420656757</ele>
        <time>2020-07-21T16:15:17Z</time>
      </trkpt>
      <trkpt lat="45.44357" lon="5.91337">
        <ele>1260.0425887287</ele>
        <time>2020-07-21T16:15:29Z</time>
      </trkpt>
      <trkpt lat="45.44364" lon="5.91331">
        <ele>1251.043130014</ele>
        <time>2020-07-21T16:15:39Z</time>
      </trkpt>
      <trkpt lat="45.44369" lon="5.91323">
        <ele>1250.0436651931</ele>
        <time>2020-07-21T16:15:44Z</time>
      </trkpt>
      <trkpt lat="45.44377" lon="5.91321">
        <ele>1251.0441693564</ele>
        <time>2020-07-21T16:15:50Z</time>
      </trkpt>
      <trkpt lat="45.4438" lon="5.9131">
        <ele>1250.0446830983</ele>
        <time>2020-07-21T16:15:58Z</time>
      </trkpt>
      <trkpt lat="45.44386" lon="5.91301">
        <ele>1251.0452522854</ele>
        <time>2020-07-21T16:16:03Z</time>
      </trkpt>
      <trkpt lat="45.44393" lon="5.91295">
        <ele>1252.0458047885</ele>
        <time>2020-07-21T16:16:13Z</time>
      </trkpt>
      <trkpt lat="45.44394" lon="5.91284">
        <ele>1251.0462483661</ele>
        <time>2020-07-21T16:16:20Z</time>
      </trkpt>
      <trkpt lat="45.44391" lon="5.91272">
        <ele>1251.0464314474</ele>
        <time>2020-07-21T16:16:27Z</time>
      </trkpt>
      <trkpt lat="45.44383" lon="5.9127">
        <ele>1247.0460521851</ele>
        <time>2020-07-21T16:16:44Z</time>
      </trkpt>
      <trkpt lat="45.44376" lon="5.91264">
        <ele>1245.0458383086</ele>
        <time>2020-07-21T16:16:52Z</time>
      </trkpt>
      <trkpt lat="45.44367" lon="5.91264">
        <ele>1244.0454028316</ele>
        <time>2020-07-21T16:17:00Z</time>
      </trkpt>
      <trkpt lat="45.4436" lon="5.91257">
        <ele>1245.0452102745</ele>
        <time>2020-07-21T16:17:05Z</time>
      </trkpt>
      <trkpt lat="45.44352" lon="5.91257">
        <ele>1242.0447613346</ele>
        <time>2020-07-21T16:17:13Z</time>
      </trkpt>
      <trkpt lat="45.44344" lon="5.91258">
        <ele>1241.0443335693</ele>
        <time>2020-07-21T16:17:18Z</time>
      </trkpt>
      <trkpt lat="45.44335" lon="5.91259">
        <ele>1239.0438119295</ele>
        <time>2020-07-21T16:17:24Z</time>
      </trkpt>
      <trkpt lat="45.44327" lon="5.91263">
        <ele>1240.0432655503</ele>
        <time>2020-07-21T16:17:31Z</time>
      </trkpt>
      <trkpt lat="45.44319" lon="5.91263">
        <ele>1240.0428233174</ele>
        <time>2020-07-21T16:17:36Z</time>
      </trkpt>
      <trkpt lat="45.4431" lon="5.91261">
        <ele>1242.0423766579</ele>
        <time>2020-07-21T16:17:41Z</time>
      </trkpt>
      <trkpt lat="45.44301" lon="5.91262">
        <ele>1248.0418815418</ele>
        <time>2020-07-21T16:17:46Z</time>
      </trkpt>
      <trkpt lat="45.44294" lon="5.91255">
        <ele>1253.0417022918</ele>
        <time>2020-07-21T16:17:52Z</time>
      </trkpt>
      <trkpt lat="45.44287" lon="5.91251">
        <ele>1247.0414623593</ele>
        <time>2020-07-21T16:17:58Z</time>
      </trkpt>
      <trkpt lat="45.4428" lon="5.91258">
        <ele>1240.0408463466</ele>
        <time>2020-07-21T16:18:04Z</time>
      </trkpt>
      <trkpt lat="45.44273" lon="5.91265">
        <ele>1236.0403019938</ele>
        <time>2020-07-21T16:18:09Z</time>
      </trkpt>
      <trkpt lat="45.44268" lon="5.91267">
        <ele>1235.0399719315</ele>
        <time>2020-07-21T16:18:13Z</time>
      </trkpt>
      <trkpt lat="45.4426" lon="5.91271">
        <ele>1236.0394013839</ele>
        <time>2020-07-21T16:18:20Z</time>
      </trkpt>
      <trkpt lat="45.44253" lon="5.91276">
        <ele>1231.0388378589</ele>
        <time>2020-07-21T16:18:29Z</time>
      </trkpt>
      <trkpt lat="45.44242" lon="5.9127">
        <ele>1228.0384512228</ele>
        <time>2020-07-21T16:18:34Z</time>
      </trkpt>
      <trkpt lat="45.44233" lon="5.91266">
        <ele>1228.0380572771</ele>
        <time>2020-07-21T16:18:39Z</time>
      </trkpt>
      <trkpt lat="45.44227" lon="5.9127">
        <ele>1227.0376576134</ele>
        <time>2020-07-21T16:18:43Z</time>
      </trkpt>
      <trkpt lat="45.44219" lon="5.91271">
        <ele>1230.037193182</ele>
        <time>2020-07-21T16:18:47Z</time>
      </trkpt>
      <trkpt lat="45.44211" lon="5.91277">
        <ele>1229.036578632</ele>
        <time>2020-07-21T16:18:52Z</time>
      </trkpt>
      <trkpt lat="45.44206" lon="5.91287">
        <ele>1224.0360057997</ele>
        <time>2020-07-21T16:18:58Z</time>
      </trkpt>
      <trkpt lat="45.44201" lon="5.91296">
        <ele>1222.0354251151</ele>
        <time>2020-07-21T16:19:03Z</time>
      </trkpt>
      <trkpt lat="45.44197" lon="5.91306">
        <ele>1218.0349260033</ele>
        <time>2020-07-21T16:19:09Z</time>
      </trkpt>
      <trkpt lat="45.44189" lon="5.91312">
        <ele>1215.0343310001</ele>
        <time>2020-07-21T16:19:14Z</time>
      </trkpt>
      <trkpt lat="45.44182" lon="5.91318">
        <ele>1190.0337143271</ele>
        <time>2020-07-21T16:19:23Z</time>
      </trkpt>
      <trkpt lat="45.44174" lon="5.91321">
        <ele>1199.0332332427</ele>
        <time>2020-07-21T16:19:27Z</time>
      </trkpt>
      <trkpt lat="45.44167" lon="5.91321">
        <ele>1205.0328364233</ele>
        <time>2020-07-21T16:19:34Z</time>
      </trkpt>
      <trkpt lat="45.44161" lon="5.91326">
        <ele>1204.0323288104</ele>
        <time>2020-07-21T16:19:39Z</time>
      </trkpt>
      <trkpt lat="45.44154" lon="5.91334">
        <ele>1207.0317256546</ele>
        <time>2020-07-21T16:19:45Z</time>
      </trkpt>
      <trkpt lat="45.44145" lon="5.91331">
        <ele>1209.0313468179</ele>
        <time>2020-07-21T16:19:50Z</time>
      </trkpt>
      <trkpt lat="45.44137" lon="5.91327">
        <ele>1210.0310422714</ele>
        <time>2020-07-21T16:19:56Z</time>
      </trkpt>
      <trkpt lat="45.4413" lon="5.91322">
        <ele>1210.0308414305</ele>
        <time>2020-07-21T16:20:01Z</time>
      </trkpt>
      <trkpt lat="45.44123" lon="5.91322">
        <ele>1210.0304440818</ele>
        <time>2020-07-21T16:20:07Z</time>
      </trkpt>
      <trkpt lat="45.44115" lon="5.9132">
        <ele>1209.0300392347</ele>
        <time>2020-07-21T16:20:13Z</time>
      </trkpt>
      <trkpt lat="45.44107" lon="5.91326">
        <ele>1208.0294387077</ele>
        <time>2020-07-21T16:20:18Z</time>
      </trkpt>
      <trkpt lat="45.44095" lon="5.91331">
        <ele>1208.0286217062</ele>
        <time>2020-07-21T16:20:23Z</time>
      </trkpt>
      <trkpt lat="45.44086" lon="5.9133">
        <ele>1206.0281860783</ele>
        <time>2020-07-21T16:20:31Z</time>
      </trkpt>
      <trkpt lat="45.44082" lon="5.9132">
        <ele>1204.0282600205</ele>
        <time>2020-07-21T16:20:37Z</time>
      </trkpt>
      <trkpt lat="45.44083" lon="5.91309">
        <ele>1202.0287195376</ele>
        <time>2020-07-21T16:20:43Z</time>
      </trkpt>
      <trkpt lat="45.44084" lon="5.91297">
        <ele>1188.0290995417</ele>
        <time>2020-07-21T16:20:58Z</time>
      </trkpt>
      <trkpt lat="45.44079" lon="5.91288">
        <ele>1188.0290862171</ele>
        <time>2020-07-21T16:21:03Z</time>
      </trkpt>
      <trkpt lat="45.44072" lon="5.91278">
        <ele>1188.0290677737</ele>
        <time>2020-07-21T16:21:08Z</time>
      </trkpt>
      <trkpt lat="45.44067" lon="5.91268">
        <ele>1190.0290401408</ele>
        <time>2020-07-21T16:21:13Z</time>
      </trkpt>
      <trkpt lat="45.44058" lon="5.91268">
        <ele>1190.0285937859</ele>
        <time>2020-07-21T16:21:18Z</time>
      </trkpt>
      <trkpt lat="45.44049" lon="5.91268">
        <ele>1187.0280801021</ele>
        <time>2020-07-21T16:21:23Z</time>
      </trkpt>
      <trkpt lat="45.4404" lon="5.91268">
        <ele>1186.0276269426</ele>
        <time>2020-07-21T16:21:29Z</time>
      </trkpt>
      <trkpt lat="45.44033" lon="5.91266">
        <ele>1184.0273007451</ele>
        <time>2020-07-21T16:21:35Z</time>
      </trkpt>
      <trkpt lat="45.44026" lon="5.91263">
        <ele>1180.0269984012</ele>
        <time>2020-07-21T16:21:40Z</time>
      </trkpt>
      <trkpt lat="45.4402" lon="5.91253">
        <ele>1178.0269832961</ele>
        <time>2020-07-21T16:21:48Z</time>
      </trkpt>
      <trkpt lat="45.44014" lon="5.91244">
        <ele>1178.0269034364</ele>
        <time>2020-07-21T16:21:56Z</time>
      </trkpt>
      <trkpt lat="45.44009" lon="5.91235">
        <ele>1178.0269219086</ele>
        <time>2020-07-21T16:22:02Z</time>
      </trkpt>
      <trkpt lat="45.44002" lon="5.91228">
        <ele>1176.0267961494</ele>
        <time>2020-07-21T16:22:09Z</time>
      </trkpt>
      <trkpt lat="45.43995" lon="5.91221">
        <ele>1179.026615629</ele>
        <time>2020-07-21T16:22:14Z</time>
      </trkpt>
      <trkpt lat="45.4399" lon="5.91211">
        <ele>1176.0266193344</ele>
        <time>2020-07-21T16:22:21Z</time>
      </trkpt>
      <trkpt lat="45.43988" lon="5.91199">
        <ele>1174.0269146903</ele>
        <time>2020-07-21T16:22:27Z</time>
      </trkpt>
      <trkpt lat="45.43987" lon="5.91187">
        <ele>1168.0271998519</ele>
        <time>2020-07-21T16:22:34Z</time>
      </trkpt>
      <trkpt lat="45.43988" lon="5.91175">
        <ele>1168.0276111103</ele>
        <time>2020-07-21T16:22:43Z</time>
      </trkpt>
      <trkpt lat="45.43986" lon="5.91165">
        <ele>1169.027841515</ele>
        <time>2020-07-21T16:22:48Z</time>
      </trkpt>
      <trkpt lat="45.4399" lon="5.91155">
        <ele>1167.0283702649</ele>
        <time>2020-07-21T16:22:58Z</time>
      </trkpt>
      <trkpt lat="45.43997" lon="5.91157">
        <ele>1170.0286911256</ele>
        <time>2020-07-21T16:23:11Z</time>
      </trkpt>
      <trkpt lat="45.44005" lon="5.91155">
        <ele>1169.029133041</ele>
        <time>2020-07-21T16:23:16Z</time>
      </trkpt>
      <trkpt lat="45.44016" lon="5.91157">
        <ele>1166.0296907987</ele>
        <time>2020-07-21T16:23:21Z</time>
      </trkpt>
      <trkpt lat="45.44022" lon="5.91149">
        <ele>1162.0302714338</ele>
        <time>2020-07-21T16:23:27Z</time>
      </trkpt>
      <trkpt lat="45.44025" lon="5.91138">
        <ele>1160.0307542691</ele>
        <time>2020-07-21T16:23:32Z</time>
      </trkpt>
      <trkpt lat="45.44027" lon="5.91125">
        <ele>1163.0312327365</ele>
        <time>2020-07-21T16:23:38Z</time>
      </trkpt>
      <trkpt lat="45.44034" lon="5.91116">
        <ele>1165.0318906438</ele>
        <time>2020-07-21T16:23:42Z</time>
      </trkpt>
      <trkpt lat="45.44033" lon="5.91105">
        <ele>1164.0322109353</ele>
        <time>2020-07-21T16:23:48Z</time>
      </trkpt>
      <trkpt lat="45.44036" lon="5.91095">
        <ele>1161.0326468432</ele>
        <time>2020-07-21T16:23:55Z</time>
      </trkpt>
      <trkpt lat="45.44033" lon="5.91082">
        <ele>1162.0328558802</ele>
        <time>2020-07-21T16:24:00Z</time>
      </trkpt>
      <trkpt lat="45.44033" lon="5.91078">
        <ele>1162.0329821956</ele>
        <time>2020-07-21T16:24:02Z</time>
      </trkpt>
      <trkpt lat="45.44039" lon="5.91071">
        <ele>1160.0335575246</ele>
        <time>2020-07-21T16:24:06Z</time>
      </trkpt>
      <trkpt lat="45.44044" lon="5.91061">
        <ele>1159.0341167231</ele>
        <time>2020-07-21T16:24:12Z</time>
      </trkpt>
      <trkpt lat="45.4404" lon="5.91045">
        <ele>1159.0343770129</ele>
        <time>2020-07-21T16:24:17Z</time>
      </trkpt>
      <trkpt lat="45.44051" lon="5.91026">
        <ele>1161.0355717325</ele>
        <time>2020-07-21T16:24:20Z</time>
      </trkpt>
      <trkpt lat="45.44044" lon="5.9101">
        <ele>1161.0356766868</ele>
        <time>2020-07-21T16:24:26Z</time>
      </trkpt>
      <trkpt lat="45.44025" lon="5.91011">
        <ele>1163.0346329408</ele>
        <time>2020-07-21T16:24:30Z</time>
      </trkpt>
      <trkpt lat="45.44033" lon="5.91006">
        <ele>1163.0351869872</ele>
        <time>2020-07-21T16:24:51Z</time>
      </trkpt>
      <trkpt lat="45.44032" lon="5.90995">
        <ele>1163.0354829998</ele>
        <time>2020-07-21T16:24:56Z</time>
      </trkpt>
      <trkpt lat="45.4403" lon="5.90984">
        <ele>1162.0356924767</ele>
        <time>2020-07-21T16:25:01Z</time>
      </trkpt>
      <trkpt lat="45.4403" lon="5.90973">
        <ele>1158.036069583</ele>
        <time>2020-07-21T16:25:06Z</time>
      </trkpt>
      <trkpt lat="45.4403" lon="5.90961">
        <ele>1161.0364300405</ele>
        <time>2020-07-21T16:25:13Z</time>
      </trkpt>
      <trkpt lat="45.44027" lon="5.9095">
        <ele>1164.0365742321</ele>
        <time>2020-07-21T16:25:18Z</time>
      </trkpt>
      <trkpt lat="45.44025" lon="5.9094">
        <ele>1160.0367669047</ele>
        <time>2020-07-21T16:25:23Z</time>
      </trkpt>
      <trkpt lat="45.44023" lon="5.90928">
        <ele>1159.0370392473</ele>
        <time>2020-07-21T16:25:32Z</time>
      </trkpt>
      <trkpt lat="45.44032" lon="5.90927">
        <ele>1157.0375399948</ele>
        <time>2020-07-21T16:25:40Z</time>
      </trkpt>
      <trkpt lat="45.44038" lon="5.90932">
        <ele>1157.0377402834</ele>
        <time>2020-07-21T16:25:45Z</time>
      </trkpt>
      <trkpt lat="45.44046" lon="5.90936">
        <ele>1159.0380610369</ele>
        <time>2020-07-21T16:25:53Z</time>
      </trkpt>
      <trkpt lat="45.44055" lon="5.90936">
        <ele>1161.0385517036</ele>
        <time>2020-07-21T16:26:01Z</time>
      </trkpt>
      <trkpt lat="45.44061" lon="5.90932">
        <ele>1156.0389812349</ele>
        <time>2020-07-21T16:26:06Z</time>
      </trkpt>
      <trkpt lat="45.44064" lon="5.90921">
        <ele>1160.0395084862</ele>
        <time>2020-07-21T16:26:13Z</time>
      </trkpt>
      <trkpt lat="45.44064" lon="5.9091">
        <ele>1160.0398157752</ele>
        <time>2020-07-21T16:26:21Z</time>
      </trkpt>
      <trkpt lat="45.44066" lon="5.909">
        <ele>1157.0402397917</ele>
        <time>2020-07-21T16:26:25Z</time>
      </trkpt>
      <trkpt lat="45.44067" lon="5.90893">
        <ele>1156.0405132712</ele>
        <time>2020-07-21T16:26:28Z</time>
      </trkpt>
      <trkpt lat="45.44071" lon="5.90881">
        <ele>1157.0410721501</ele>
        <time>2020-07-21T16:26:33Z</time>
      </trkpt>
      <trkpt lat="45.44071" lon="5.90867">
        <ele>1156.041499795</ele>
        <time>2020-07-21T16:26:37Z</time>
      </trkpt>
      <trkpt lat="45.44078" lon="5.90859">
        <ele>1151.0421222027</ele>
        <time>2020-07-21T16:26:43Z</time>
      </trkpt>
      <trkpt lat="45.44082" lon="5.90851">
        <ele>1154.0426145919</ele>
        <time>2020-07-21T16:26:48Z</time>
      </trkpt>
      <trkpt lat="45.44088" lon="5.90842">
        <ele>1152.0432206579</ele>
        <time>2020-07-21T16:26:54Z</time>
      </trkpt>
      <trkpt lat="45.4409" lon="5.90831">
        <ele>1154.0436707063</ele>
        <time>2020-07-21T16:27:01Z</time>
      </trkpt>
      <trkpt lat="45.44092" lon="5.9082">
        <ele>1154.0440830836</ele>
        <time>2020-07-21T16:27:07Z</time>
      </trkpt>
      <trkpt lat="45.4409" lon="5.90808">
        <ele>1154.0443765766</ele>
        <time>2020-07-21T16:27:13Z</time>
      </trkpt>
      <trkpt lat="45.44086" lon="5.90797">
        <ele>1150.0445092435</ele>
        <time>2020-07-21T16:27:19Z</time>
      </trkpt>
      <trkpt lat="45.44082" lon="5.90788">
        <ele>1149.0445126005</ele>
        <time>2020-07-21T16:27:26Z</time>
      </trkpt>
      <trkpt lat="45.44076" lon="5.90779">
        <ele>1149.0444708663</ele>
        <time>2020-07-21T16:27:34Z</time>
      </trkpt>
      <trkpt lat="45.44069" lon="5.90771">
        <ele>1146.0443331827</ele>
        <time>2020-07-21T16:27:41Z</time>
      </trkpt>
      <trkpt lat="45.44064" lon="5.90761">
        <ele>1145.0443741904</ele>
        <time>2020-07-21T16:27:46Z</time>
      </trkpt>
      <trkpt lat="45.4406" lon="5.90751">
        <ele>1145.0444243945</ele>
        <time>2020-07-21T16:27:51Z</time>
      </trkpt>
      <trkpt lat="45.44063" lon="5.90741">
        <ele>1145.0449296602</ele>
        <time>2020-07-21T16:27:58Z</time>
      </trkpt>
      <trkpt lat="45.44066" lon="5.9073">
        <ele>1140.0454137724</ele>
        <time>2020-07-21T16:28:07Z</time>
      </trkpt>
      <trkpt lat="45.44073" lon="5.90726">
        <ele>1132.0459373274</ele>
        <time>2020-07-21T16:28:11Z</time>
      </trkpt>
      <trkpt lat="45.44078" lon="5.90717">
        <ele>1127.0465057078</ele>
        <time>2020-07-21T16:28:17Z</time>
      </trkpt>
      <trkpt lat="45.4408" lon="5.90706">
        <ele>1126.0469071932</ele>
        <time>2020-07-21T16:28:22Z</time>
      </trkpt>
      <trkpt lat="45.44078" lon="5.90691">
        <ele>1128.0472552619</ele>
        <time>2020-07-21T16:28:27Z</time>
      </trkpt>
      <trkpt lat="45.44074" lon="5.9068">
        <ele>1126.0474185959</ele>
        <time>2020-07-21T16:28:32Z</time>
      </trkpt>
      <trkpt lat="45.44076" lon="5.90669">
        <ele>1126.047848914</ele>
        <time>2020-07-21T16:28:38Z</time>
      </trkpt>
      <trkpt lat="45.4408" lon="5.9066">
        <ele>1124.0483075152</ele>
        <time>2020-07-21T16:28:43Z</time>
      </trkpt>
      <trkpt lat="45.4409" lon="5.90652">
        <ele>1127.0491168609</ele>
        <time>2020-07-21T16:28:48Z</time>
      </trkpt>
      <trkpt lat="45.44095" lon="5.9064">
        <ele>1129.0497518184</ele>
        <time>2020-07-21T16:28:53Z</time>
      </trkpt>
      <trkpt lat="45.44099" lon="5.90629">
        <ele>1128.0503182341</ele>
        <time>2020-07-21T16:28:57Z</time>
      </trkpt>
      <trkpt lat="45.44102" lon="5.90618">
        <ele>1125.0508218947</ele>
        <time>2020-07-21T16:29:03Z</time>
      </trkpt>
      <trkpt lat="45.44103" lon="5.90608">
        <ele>1125.0512109751</ele>
        <time>2020-07-21T16:29:07Z</time>
      </trkpt>
      <trkpt lat="45.4411" lon="5.906">
        <ele>1125.0517958399</ele>
        <time>2020-07-21T16:29:13Z</time>
      </trkpt>
      <trkpt lat="45.44119" lon="5.906">
        <ele>1122.0522974857</ele>
        <time>2020-07-21T16:29:21Z</time>
      </trkpt>
      <trkpt lat="45.44124" lon="5.90594">
        <ele>1122.0527481653</ele>
        <time>2020-07-21T16:29:25Z</time>
      </trkpt>
      <trkpt lat="45.44131" lon="5.90589">
        <ele>1118.0533227225</ele>
        <time>2020-07-21T16:29:31Z</time>
      </trkpt>
      <trkpt lat="45.44135" lon="5.9058">
        <ele>1119.0538090747</ele>
        <time>2020-07-21T16:29:38Z</time>
      </trkpt>
      <trkpt lat="45.44141" lon="5.90574">
        <ele>1119.0543067056</ele>
        <time>2020-07-21T16:29:45Z</time>
      </trkpt>
      <trkpt lat="45.44148" lon="5.90571">
        <ele>1119.0547981847</ele>
        <time>2020-07-21T16:29:49Z</time>
      </trkpt>
      <trkpt lat="45.44156" lon="5.90567">
        <ele>1119.0553711516</ele>
        <time>2020-07-21T16:29:56Z</time>
      </trkpt>
      <trkpt lat="45.44165" lon="5.90563">
        <ele>1118.0559608746</ele>
        <time>2020-07-21T16:30:02Z</time>
      </trkpt>
      <trkpt lat="45.44173" lon="5.90564">
        <ele>1120.0563857034</ele>
        <time>2020-07-21T16:30:10Z</time>
      </trkpt>
      <trkpt lat="45.4418" lon="5.90569">
        <ele>1120.0566277644</ele>
        <time>2020-07-21T16:30:15Z</time>
      </trkpt>
      <trkpt lat="45.44187" lon="5.90568">
        <ele>1116.057030706</ele>
        <time>2020-07-21T16:30:19Z</time>
      </trkpt>
      <trkpt lat="45.44195" lon="5.90567">
        <ele>1111.0574839487</ele>
        <time>2020-07-21T16:30:23Z</time>
      </trkpt>
      <trkpt lat="45.44203" lon="5.90567">
        <ele>1106.0579413074</ele>
        <time>2020-07-21T16:30:29Z</time>
      </trkpt>
      <trkpt lat="45.44211" lon="5.90569">
        <ele>1105.0583081387</ele>
        <time>2020-07-21T16:30:35Z</time>
      </trkpt>
      <trkpt lat="45.44219" lon="5.90574">
        <ele>1106.0586212803</ele>
        <time>2020-07-21T16:30:40Z</time>
      </trkpt>
      <trkpt lat="45.44227" lon="5.90575">
        <ele>1104.059029334</ele>
        <time>2020-07-21T16:30:45Z</time>
      </trkpt>
      <trkpt lat="45.44236" lon="5.90573">
        <ele>1101.0595783332</ele>
        <time>2020-07-21T16:30:51Z</time>
      </trkpt>
      <trkpt lat="45.44244" lon="5.90568">
        <ele>1100.0601645075</ele>
        <time>2020-07-21T16:30:56Z</time>
      </trkpt>
      <trkpt lat="45.44251" lon="5.90564">
        <ele>1097.0606792878</ele>
        <time>2020-07-21T16:31:01Z</time>
      </trkpt>
      <trkpt lat="45.44259" lon="5.90561">
        <ele>1096.061236974</ele>
        <time>2020-07-21T16:31:06Z</time>
      </trkpt>
      <trkpt lat="45.44267" lon="5.90558">
        <ele>1095.0617266953</ele>
        <time>2020-07-21T16:31:13Z</time>
      </trkpt>
      <trkpt lat="45.44274" lon="5.90556">
        <ele>1095.0621964615</ele>
        <time>2020-07-21T16:31:18Z</time>
      </trkpt>
      <trkpt lat="45.44282" lon="5.90552">
        <ele>1094.0627726024</ele>
        <time>2020-07-21T16:31:24Z</time>
      </trkpt>
      <trkpt lat="45.44291" lon="5.90551">
        <ele>1094.063286023</ele>
        <time>2020-07-21T16:31:29Z</time>
      </trkpt>
      <trkpt lat="45.44299" lon="5.90547">
        <ele>1093.0638375549</ele>
        <time>2020-07-21T16:31:34Z</time>
      </trkpt>
      <trkpt lat="45.44306" lon="5.90544">
        <ele>1094.0643161423</ele>
        <time>2020-07-21T16:31:39Z</time>
      </trkpt>
      <trkpt lat="45.44313" lon="5.90539">
        <ele>1095.0648603257</ele>
        <time>2020-07-21T16:31:44Z</time>
      </trkpt>
      <trkpt lat="45.44319" lon="5.90534">
        <ele>1093.0653736479</ele>
        <time>2020-07-21T16:31:49Z</time>
      </trkpt>
      <trkpt lat="45.44325" lon="5.90524">
        <ele>1091.066000124</ele>
        <time>2020-07-21T16:31:54Z</time>
      </trkpt>
      <trkpt lat="45.4433" lon="5.90516">
        <ele>1090.0664979904</ele>
        <time>2020-07-21T16:31:59Z</time>
      </trkpt>
      <trkpt lat="45.44333" lon="5.90506">
        <ele>1089.0670211401</ele>
        <time>2020-07-21T16:32:05Z</time>
      </trkpt>
      <trkpt lat="45.44338" lon="5.90497">
        <ele>1088.0675345689</ele>
        <time>2020-07-21T16:32:09Z</time>
      </trkpt>
      <trkpt lat="45.44343" lon="5.90487">
        <ele>1087.0681029682</ele>
        <time>2020-07-21T16:32:16Z</time>
      </trkpt>
      <trkpt lat="45.44347" lon="5.90476">
        <ele>1087.0686766328</ele>
        <time>2020-07-21T16:32:22Z</time>
      </trkpt>
      <trkpt lat="45.44349" lon="5.90464">
        <ele>1085.0691941325</ele>
        <time>2020-07-21T16:32:29Z</time>
      </trkpt>
      <trkpt lat="45.44353" lon="5.90453">
        <ele>1084.069741463</ele>
        <time>2020-07-21T16:32:35Z</time>
      </trkpt>
      <trkpt lat="45.44357" lon="5.90444">
        <ele>1083.07026291</ele>
        <time>2020-07-21T16:32:40Z</time>
      </trkpt>
      <trkpt lat="45.44362" lon="5.90434">
        <ele>1084.0708483533</ele>
        <time>2020-07-21T16:32:45Z</time>
      </trkpt>
      <trkpt lat="45.44366" lon="5.90425">
        <ele>1084.0713621962</ele>
        <time>2020-07-21T16:32:50Z</time>
      </trkpt>
      <trkpt lat="45.44369" lon="5.90414">
        <ele>1082.0718402183</ele>
        <time>2020-07-21T16:32:56Z</time>
      </trkpt>
      <trkpt lat="45.44374" lon="5.90405">
        <ele>1080.0723723207</ele>
        <time>2020-07-21T16:33:00Z</time>
      </trkpt>
      <trkpt lat="45.44379" lon="5.90395">
        <ele>1080.0729632412</ele>
        <time>2020-07-21T16:33:07Z</time>
      </trkpt>
      <trkpt lat="45.44384" lon="5.90387">
        <ele>1080.0735248759</ele>
        <time>2020-07-21T16:33:13Z</time>
      </trkpt>
      <trkpt lat="45.44388" lon="5.90376">
        <ele>1079.0740322922</ele>
        <time>2020-07-21T16:33:19Z</time>
      </trkpt>
      <trkpt lat="45.44393" lon="5.90366">
        <ele>1078.0746411637</ele>
        <time>2020-07-21T16:33:26Z</time>
      </trkpt>
      <trkpt lat="45.44395" lon="5.90354">
        <ele>1079.0751554331</ele>
        <time>2020-07-21T16:33:45Z</time>
      </trkpt>
      <trkpt lat="45.44395" lon="5.90342">
        <ele>1076.0754922957</ele>
        <time>2020-07-21T16:33:55Z</time>
      </trkpt>
      <trkpt lat="45.44393" lon="5.9034">
        <ele>1079.0754686839</ele>
        <time>2020-07-21T16:34:15Z</time>
      </trkpt>
      <trkpt lat="45.44393" lon="5.9034">
        <ele>1079.0754686839</ele>
        <time>2020-07-21T16:34:16Z</time>
      </trkpt>
    </trkseg>
  </trk>
</gpx>